<?xml version="1.0" encoding="UTF-8" standalone="no" ?>
<gpx xmlns="http://www.topografix.com/GPX/1/1" xmlns:xsi="http://www.w3.org/2001/XMLSchema-instance" xsi:schemaLocation="http://www.topografix.com/GPX/1/1 http://www.topografix.com/GPX/1/1/gpx.xsd" version="1.1" creator="VisuGPX - https://www.visugpx.com">
  <metadata>
    <name>Randonnée Cap d'ERQUI</name>
    <desc><![CDATA[Ror Armor- plage du Guen-Cap d'Erquy.]]></desc>
  </metadata>
  <trk>
    <name><![CDATA[2018-06-10 17:48:53]]></name>
    <trkseg>
      <trkpt lat="48.65166" lon="-2.43938">
        <ele>13.87</ele>
        <time>2018-06-10T12:03:23Z</time>
      </trkpt>
      <trkpt lat="48.65167" lon="-2.43941">
        <ele>13.33</ele>
        <time>2018-06-10T12:03:50Z</time>
      </trkpt>
      <trkpt lat="48.65168" lon="-2.43941">
        <ele>12.87</ele>
        <time>2018-06-10T12:04:11Z</time>
      </trkpt>
      <trkpt lat="48.65167" lon="-2.43938">
        <ele>12.98</ele>
        <time>2018-06-10T12:04:34Z</time>
      </trkpt>
      <trkpt lat="48.65168" lon="-2.43937">
        <ele>12.59</ele>
        <time>2018-06-10T12:04:56Z</time>
      </trkpt>
      <trkpt lat="48.65171" lon="-2.43941">
        <ele>12.97</ele>
        <time>2018-06-10T12:05:17Z</time>
      </trkpt>
      <trkpt lat="48.6517" lon="-2.43942">
        <ele>12.39</ele>
        <time>2018-06-10T12:05:43Z</time>
      </trkpt>
      <trkpt lat="48.6517" lon="-2.43944">
        <ele>12.69</ele>
        <time>2018-06-10T12:06:02Z</time>
      </trkpt>
      <trkpt lat="48.6517" lon="-2.43941">
        <ele>12.39</ele>
        <time>2018-06-10T12:06:29Z</time>
      </trkpt>
      <trkpt lat="48.65173" lon="-2.43944">
        <ele>12.15</ele>
        <time>2018-06-10T12:06:52Z</time>
      </trkpt>
      <trkpt lat="48.65172" lon="-2.43942">
        <ele>12.09</ele>
        <time>2018-06-10T12:07:12Z</time>
      </trkpt>
      <trkpt lat="48.6517" lon="-2.43945">
        <ele>12.42</ele>
        <time>2018-06-10T12:07:32Z</time>
      </trkpt>
      <trkpt lat="48.65168" lon="-2.43944">
        <ele>12.48</ele>
        <time>2018-06-10T12:07:53Z</time>
      </trkpt>
      <trkpt lat="48.6517" lon="-2.43949">
        <ele>12.56</ele>
        <time>2018-06-10T12:08:19Z</time>
      </trkpt>
      <trkpt lat="48.65168" lon="-2.43952">
        <ele>12.25</ele>
        <time>2018-06-10T12:08:42Z</time>
      </trkpt>
      <trkpt lat="48.65168" lon="-2.43951">
        <ele>12.18</ele>
        <time>2018-06-10T12:09:09Z</time>
      </trkpt>
      <trkpt lat="48.65168" lon="-2.43952">
        <ele>11.88</ele>
        <time>2018-06-10T12:09:36Z</time>
      </trkpt>
      <trkpt lat="48.65166" lon="-2.43957">
        <ele>12.33</ele>
        <time>2018-06-10T12:09:48Z</time>
      </trkpt>
      <trkpt lat="48.65165" lon="-2.43964">
        <ele>12.25</ele>
        <time>2018-06-10T12:09:52Z</time>
      </trkpt>
      <trkpt lat="48.65166" lon="-2.43995">
        <ele>11.45</ele>
        <time>2018-06-10T12:10:08Z</time>
      </trkpt>
      <trkpt lat="48.65163" lon="-2.4404">
        <ele>11.24</ele>
        <time>2018-06-10T12:10:29Z</time>
      </trkpt>
      <trkpt lat="48.65163" lon="-2.44076">
        <ele>10.06</ele>
        <time>2018-06-10T12:10:49Z</time>
      </trkpt>
      <trkpt lat="48.65171" lon="-2.44105">
        <ele>8.96</ele>
        <time>2018-06-10T12:11:08Z</time>
      </trkpt>
      <trkpt lat="48.65179" lon="-2.44128">
        <ele>7.57</ele>
        <time>2018-06-10T12:11:24Z</time>
      </trkpt>
      <trkpt lat="48.65179" lon="-2.44134">
        <ele>7.56</ele>
        <time>2018-06-10T12:11:28Z</time>
      </trkpt>
      <trkpt lat="48.6518" lon="-2.44137">
        <ele>7.27</ele>
        <time>2018-06-10T12:11:44Z</time>
      </trkpt>
      <trkpt lat="48.6518" lon="-2.44138">
        <ele>7.18</ele>
        <time>2018-06-10T12:12:05Z</time>
      </trkpt>
      <trkpt lat="48.6518" lon="-2.44138">
        <ele>7.15</ele>
        <time>2018-06-10T12:12:34Z</time>
      </trkpt>
      <trkpt lat="48.6518" lon="-2.4414">
        <ele>7.25</ele>
        <time>2018-06-10T12:13:03Z</time>
      </trkpt>
      <trkpt lat="48.65176" lon="-2.44146">
        <ele>6.5</ele>
        <time>2018-06-10T12:13:24Z</time>
      </trkpt>
      <trkpt lat="48.65174" lon="-2.44146">
        <ele>6.36</ele>
        <time>2018-06-10T12:13:26Z</time>
      </trkpt>
      <trkpt lat="48.65172" lon="-2.44147">
        <ele>6.36</ele>
        <time>2018-06-10T12:13:28Z</time>
      </trkpt>
      <trkpt lat="48.65154" lon="-2.44148">
        <ele>4.82</ele>
        <time>2018-06-10T12:13:46Z</time>
      </trkpt>
      <trkpt lat="48.65145" lon="-2.44148">
        <ele>5.29</ele>
        <time>2018-06-10T12:13:56Z</time>
      </trkpt>
      <trkpt lat="48.65141" lon="-2.44171">
        <ele>5.08</ele>
        <time>2018-06-10T12:14:11Z</time>
      </trkpt>
      <trkpt lat="48.65128" lon="-2.44202">
        <ele>4.32</ele>
        <time>2018-06-10T12:14:29Z</time>
      </trkpt>
      <trkpt lat="48.65118" lon="-2.44222">
        <ele>4.17</ele>
        <time>2018-06-10T12:14:44Z</time>
      </trkpt>
      <trkpt lat="48.65105" lon="-2.44252">
        <ele>4.52</ele>
        <time>2018-06-10T12:15:04Z</time>
      </trkpt>
      <trkpt lat="48.65095" lon="-2.44273">
        <ele>4.67</ele>
        <time>2018-06-10T12:15:19Z</time>
      </trkpt>
      <trkpt lat="48.65088" lon="-2.44295">
        <ele>4.91</ele>
        <time>2018-06-10T12:15:35Z</time>
      </trkpt>
      <trkpt lat="48.65082" lon="-2.44321">
        <ele>4.45</ele>
        <time>2018-06-10T12:15:52Z</time>
      </trkpt>
      <trkpt lat="48.65075" lon="-2.44346">
        <ele>4.84</ele>
        <time>2018-06-10T12:16:09Z</time>
      </trkpt>
      <trkpt lat="48.6507" lon="-2.44356">
        <ele>5.22</ele>
        <time>2018-06-10T12:16:18Z</time>
      </trkpt>
      <trkpt lat="48.65069" lon="-2.44361">
        <ele>5.21</ele>
        <time>2018-06-10T12:16:21Z</time>
      </trkpt>
      <trkpt lat="48.65074" lon="-2.44373">
        <ele>4.26</ele>
        <time>2018-06-10T12:16:29Z</time>
      </trkpt>
      <trkpt lat="48.65083" lon="-2.44393">
        <ele>3.89</ele>
        <time>2018-06-10T12:16:45Z</time>
      </trkpt>
      <trkpt lat="48.65083" lon="-2.44423">
        <ele>3.02</ele>
        <time>2018-06-10T12:17:03Z</time>
      </trkpt>
      <trkpt lat="48.65076" lon="-2.4445">
        <ele>3.75</ele>
        <time>2018-06-10T12:17:19Z</time>
      </trkpt>
      <trkpt lat="48.6507" lon="-2.44478">
        <ele>4.47</ele>
        <time>2018-06-10T12:17:36Z</time>
      </trkpt>
      <trkpt lat="48.65061" lon="-2.44508">
        <ele>3.89</ele>
        <time>2018-06-10T12:17:56Z</time>
      </trkpt>
      <trkpt lat="48.65053" lon="-2.44527">
        <ele>3</ele>
        <time>2018-06-10T12:18:08Z</time>
      </trkpt>
      <trkpt lat="48.65052" lon="-2.44535">
        <ele>2.83</ele>
        <time>2018-06-10T12:18:13Z</time>
      </trkpt>
      <trkpt lat="48.65042" lon="-2.44562">
        <ele>2.78</ele>
        <time>2018-06-10T12:18:30Z</time>
      </trkpt>
      <trkpt lat="48.65031" lon="-2.44586">
        <ele>2.84</ele>
        <time>2018-06-10T12:18:49Z</time>
      </trkpt>
      <trkpt lat="48.65022" lon="-2.44608">
        <ele>2.25</ele>
        <time>2018-06-10T12:19:06Z</time>
      </trkpt>
      <trkpt lat="48.65022" lon="-2.44609">
        <ele>2.31</ele>
        <time>2018-06-10T12:19:07Z</time>
      </trkpt>
      <trkpt lat="48.6502" lon="-2.44614">
        <ele>2.96</ele>
        <time>2018-06-10T12:19:11Z</time>
      </trkpt>
      <trkpt lat="48.65009" lon="-2.44638">
        <ele>2.89</ele>
        <time>2018-06-10T12:19:29Z</time>
      </trkpt>
      <trkpt lat="48.64999" lon="-2.44671">
        <ele>3.3</ele>
        <time>2018-06-10T12:19:50Z</time>
      </trkpt>
      <trkpt lat="48.64994" lon="-2.44693">
        <ele>3.21</ele>
        <time>2018-06-10T12:20:05Z</time>
      </trkpt>
      <trkpt lat="48.64994" lon="-2.44696">
        <ele>2.77</ele>
        <time>2018-06-10T12:20:07Z</time>
      </trkpt>
      <trkpt lat="48.6499" lon="-2.44719">
        <ele>2.82</ele>
        <time>2018-06-10T12:20:22Z</time>
      </trkpt>
      <trkpt lat="48.64984" lon="-2.44751">
        <ele>3.34</ele>
        <time>2018-06-10T12:20:42Z</time>
      </trkpt>
      <trkpt lat="48.64978" lon="-2.44773">
        <ele>2.47</ele>
        <time>2018-06-10T12:20:57Z</time>
      </trkpt>
      <trkpt lat="48.64969" lon="-2.44797">
        <ele>2.57</ele>
        <time>2018-06-10T12:21:14Z</time>
      </trkpt>
      <trkpt lat="48.6496" lon="-2.44822">
        <ele>3.45</ele>
        <time>2018-06-10T12:21:33Z</time>
      </trkpt>
      <trkpt lat="48.64952" lon="-2.44849">
        <ele>3.01</ele>
        <time>2018-06-10T12:21:50Z</time>
      </trkpt>
      <trkpt lat="48.64946" lon="-2.44869">
        <ele>2.71</ele>
        <time>2018-06-10T12:22:02Z</time>
      </trkpt>
      <trkpt lat="48.64939" lon="-2.44874">
        <ele>3.14</ele>
        <time>2018-06-10T12:22:12Z</time>
      </trkpt>
      <trkpt lat="48.64936" lon="-2.44885">
        <ele>2.75</ele>
        <time>2018-06-10T12:22:19Z</time>
      </trkpt>
      <trkpt lat="48.6493" lon="-2.4491">
        <ele>3.4</ele>
        <time>2018-06-10T12:22:35Z</time>
      </trkpt>
      <trkpt lat="48.64928" lon="-2.44934">
        <ele>3.17</ele>
        <time>2018-06-10T12:22:50Z</time>
      </trkpt>
      <trkpt lat="48.64923" lon="-2.44962">
        <ele>3.84</ele>
        <time>2018-06-10T12:23:07Z</time>
      </trkpt>
      <trkpt lat="48.64921" lon="-2.44984">
        <ele>3.9</ele>
        <time>2018-06-10T12:23:22Z</time>
      </trkpt>
      <trkpt lat="48.64915" lon="-2.4501">
        <ele>3.07</ele>
        <time>2018-06-10T12:23:39Z</time>
      </trkpt>
      <trkpt lat="48.64914" lon="-2.45017">
        <ele>3.24</ele>
        <time>2018-06-10T12:23:45Z</time>
      </trkpt>
      <trkpt lat="48.64912" lon="-2.4502">
        <ele>2.84</ele>
        <time>2018-06-10T12:23:47Z</time>
      </trkpt>
      <trkpt lat="48.64908" lon="-2.45028">
        <ele>2.77</ele>
        <time>2018-06-10T12:23:53Z</time>
      </trkpt>
      <trkpt lat="48.64903" lon="-2.45044">
        <ele>2.69</ele>
        <time>2018-06-10T12:24:03Z</time>
      </trkpt>
      <trkpt lat="48.64894" lon="-2.45059">
        <ele>2.79</ele>
        <time>2018-06-10T12:24:16Z</time>
      </trkpt>
      <trkpt lat="48.64881" lon="-2.45086">
        <ele>3.23</ele>
        <time>2018-06-10T12:24:34Z</time>
      </trkpt>
      <trkpt lat="48.64881" lon="-2.45091">
        <ele>2.83</ele>
        <time>2018-06-10T12:24:52Z</time>
      </trkpt>
      <trkpt lat="48.6488" lon="-2.45094">
        <ele>2.61</ele>
        <time>2018-06-10T12:24:55Z</time>
      </trkpt>
      <trkpt lat="48.64878" lon="-2.45103">
        <ele>2.77</ele>
        <time>2018-06-10T12:25:01Z</time>
      </trkpt>
      <trkpt lat="48.64873" lon="-2.45124">
        <ele>2.53</ele>
        <time>2018-06-10T12:25:16Z</time>
      </trkpt>
      <trkpt lat="48.64866" lon="-2.45141">
        <ele>3.07</ele>
        <time>2018-06-10T12:25:27Z</time>
      </trkpt>
      <trkpt lat="48.64858" lon="-2.45163">
        <ele>3.12</ele>
        <time>2018-06-10T12:25:43Z</time>
      </trkpt>
      <trkpt lat="48.64849" lon="-2.45186">
        <ele>2.33</ele>
        <time>2018-06-10T12:25:59Z</time>
      </trkpt>
      <trkpt lat="48.64841" lon="-2.4521">
        <ele>2.58</ele>
        <time>2018-06-10T12:26:17Z</time>
      </trkpt>
      <trkpt lat="48.64836" lon="-2.45232">
        <ele>3.04</ele>
        <time>2018-06-10T12:26:34Z</time>
      </trkpt>
      <trkpt lat="48.6483" lon="-2.45258">
        <ele>2.36</ele>
        <time>2018-06-10T12:26:53Z</time>
      </trkpt>
      <trkpt lat="48.64826" lon="-2.45285">
        <ele>2.5</ele>
        <time>2018-06-10T12:27:10Z</time>
      </trkpt>
      <trkpt lat="48.64823" lon="-2.45293">
        <ele>2.67</ele>
        <time>2018-06-10T12:27:17Z</time>
      </trkpt>
      <trkpt lat="48.64804" lon="-2.45299">
        <ele>3.49</ele>
        <time>2018-06-10T12:27:35Z</time>
      </trkpt>
      <trkpt lat="48.64788" lon="-2.4531">
        <ele>4.21</ele>
        <time>2018-06-10T12:27:54Z</time>
      </trkpt>
      <trkpt lat="48.64775" lon="-2.45319">
        <ele>5.41</ele>
        <time>2018-06-10T12:28:12Z</time>
      </trkpt>
      <trkpt lat="48.64765" lon="-2.45328">
        <ele>8.01</ele>
        <time>2018-06-10T12:28:30Z</time>
      </trkpt>
      <trkpt lat="48.64767" lon="-2.45329">
        <ele>8.77</ele>
        <time>2018-06-10T12:28:50Z</time>
      </trkpt>
      <trkpt lat="48.64768" lon="-2.45328">
        <ele>8.13</ele>
        <time>2018-06-10T12:29:24Z</time>
      </trkpt>
      <trkpt lat="48.64767" lon="-2.45328">
        <ele>8.38</ele>
        <time>2018-06-10T12:29:56Z</time>
      </trkpt>
      <trkpt lat="48.64768" lon="-2.45327">
        <ele>8.1</ele>
        <time>2018-06-10T12:30:33Z</time>
      </trkpt>
      <trkpt lat="48.64765" lon="-2.45328">
        <ele>8.73</ele>
        <time>2018-06-10T12:30:57Z</time>
      </trkpt>
      <trkpt lat="48.64763" lon="-2.45339">
        <ele>10.15</ele>
        <time>2018-06-10T12:31:15Z</time>
      </trkpt>
      <trkpt lat="48.64762" lon="-2.45346">
        <ele>11.02</ele>
        <time>2018-06-10T12:31:21Z</time>
      </trkpt>
      <trkpt lat="48.64761" lon="-2.45356">
        <ele>13.01</ele>
        <time>2018-06-10T12:31:28Z</time>
      </trkpt>
      <trkpt lat="48.64757" lon="-2.45379">
        <ele>14.35</ele>
        <time>2018-06-10T12:31:45Z</time>
      </trkpt>
      <trkpt lat="48.64746" lon="-2.45398">
        <ele>15.47</ele>
        <time>2018-06-10T12:32:00Z</time>
      </trkpt>
      <trkpt lat="48.64733" lon="-2.45413">
        <ele>17.38</ele>
        <time>2018-06-10T12:32:15Z</time>
      </trkpt>
      <trkpt lat="48.64717" lon="-2.4542">
        <ele>18.75</ele>
        <time>2018-06-10T12:32:31Z</time>
      </trkpt>
      <trkpt lat="48.64703" lon="-2.45428">
        <ele>20.32</ele>
        <time>2018-06-10T12:32:46Z</time>
      </trkpt>
      <trkpt lat="48.64684" lon="-2.45449">
        <ele>22.29</ele>
        <time>2018-06-10T12:33:09Z</time>
      </trkpt>
      <trkpt lat="48.64678" lon="-2.45454">
        <ele>23.03</ele>
        <time>2018-06-10T12:33:16Z</time>
      </trkpt>
      <trkpt lat="48.64665" lon="-2.45485">
        <ele>24.97</ele>
        <time>2018-06-10T12:33:35Z</time>
      </trkpt>
      <trkpt lat="48.64659" lon="-2.45504">
        <ele>25.71</ele>
        <time>2018-06-10T12:33:48Z</time>
      </trkpt>
      <trkpt lat="48.64654" lon="-2.4552">
        <ele>28.25</ele>
        <time>2018-06-10T12:34:01Z</time>
      </trkpt>
      <trkpt lat="48.64663" lon="-2.45525">
        <ele>31.68</ele>
        <time>2018-06-10T12:34:20Z</time>
      </trkpt>
      <trkpt lat="48.64681" lon="-2.45515">
        <ele>32.01</ele>
        <time>2018-06-10T12:34:42Z</time>
      </trkpt>
      <trkpt lat="48.64698" lon="-2.45497">
        <ele>33.05</ele>
        <time>2018-06-10T12:35:00Z</time>
      </trkpt>
      <trkpt lat="48.64711" lon="-2.45482">
        <ele>33.98</ele>
        <time>2018-06-10T12:35:16Z</time>
      </trkpt>
      <trkpt lat="48.64731" lon="-2.45464">
        <ele>35.09</ele>
        <time>2018-06-10T12:35:36Z</time>
      </trkpt>
      <trkpt lat="48.64741" lon="-2.45455">
        <ele>34.66</ele>
        <time>2018-06-10T12:35:48Z</time>
      </trkpt>
      <trkpt lat="48.64752" lon="-2.45461">
        <ele>35.02</ele>
        <time>2018-06-10T12:36:02Z</time>
      </trkpt>
      <trkpt lat="48.64763" lon="-2.45461">
        <ele>34.2</ele>
        <time>2018-06-10T12:36:12Z</time>
      </trkpt>
      <trkpt lat="48.64767" lon="-2.45472">
        <ele>34.18</ele>
        <time>2018-06-10T12:36:23Z</time>
      </trkpt>
      <trkpt lat="48.64766" lon="-2.45479">
        <ele>34.23</ele>
        <time>2018-06-10T12:36:27Z</time>
      </trkpt>
      <trkpt lat="48.64764" lon="-2.45492">
        <ele>34.1</ele>
        <time>2018-06-10T12:36:35Z</time>
      </trkpt>
      <trkpt lat="48.64763" lon="-2.45519">
        <ele>32.76</ele>
        <time>2018-06-10T12:36:51Z</time>
      </trkpt>
      <trkpt lat="48.64759" lon="-2.45531">
        <ele>32.91</ele>
        <time>2018-06-10T12:37:07Z</time>
      </trkpt>
      <trkpt lat="48.64759" lon="-2.45528">
        <ele>32.59</ele>
        <time>2018-06-10T12:37:36Z</time>
      </trkpt>
      <trkpt lat="48.64761" lon="-2.45533">
        <ele>32.19</ele>
        <time>2018-06-10T12:37:41Z</time>
      </trkpt>
      <trkpt lat="48.64762" lon="-2.45541">
        <ele>32.51</ele>
        <time>2018-06-10T12:37:46Z</time>
      </trkpt>
      <trkpt lat="48.64771" lon="-2.45571">
        <ele>32.45</ele>
        <time>2018-06-10T12:38:05Z</time>
      </trkpt>
      <trkpt lat="48.64774" lon="-2.45598">
        <ele>33.55</ele>
        <time>2018-06-10T12:38:22Z</time>
      </trkpt>
      <trkpt lat="48.64775" lon="-2.45613">
        <ele>34.88</ele>
        <time>2018-06-10T12:38:32Z</time>
      </trkpt>
      <trkpt lat="48.64779" lon="-2.45636">
        <ele>36.52</ele>
        <time>2018-06-10T12:38:48Z</time>
      </trkpt>
      <trkpt lat="48.64787" lon="-2.45655">
        <ele>37.42</ele>
        <time>2018-06-10T12:39:03Z</time>
      </trkpt>
      <trkpt lat="48.64789" lon="-2.45662">
        <ele>38.26</ele>
        <time>2018-06-10T12:39:08Z</time>
      </trkpt>
      <trkpt lat="48.64793" lon="-2.45692">
        <ele>38.3</ele>
        <time>2018-06-10T12:39:26Z</time>
      </trkpt>
      <trkpt lat="48.64803" lon="-2.4572">
        <ele>38.41</ele>
        <time>2018-06-10T12:39:45Z</time>
      </trkpt>
      <trkpt lat="48.64807" lon="-2.4575">
        <ele>39</ele>
        <time>2018-06-10T12:40:03Z</time>
      </trkpt>
      <trkpt lat="48.64803" lon="-2.45782">
        <ele>39.53</ele>
        <time>2018-06-10T12:40:22Z</time>
      </trkpt>
      <trkpt lat="48.64801" lon="-2.4581">
        <ele>38.39</ele>
        <time>2018-06-10T12:40:39Z</time>
      </trkpt>
      <trkpt lat="48.64801" lon="-2.45816">
        <ele>37.95</ele>
        <time>2018-06-10T12:40:43Z</time>
      </trkpt>
      <trkpt lat="48.648" lon="-2.45834">
        <ele>36.5</ele>
        <time>2018-06-10T12:40:56Z</time>
      </trkpt>
      <trkpt lat="48.64799" lon="-2.45838">
        <ele>35.17</ele>
        <time>2018-06-10T12:40:59Z</time>
      </trkpt>
      <trkpt lat="48.64799" lon="-2.45858">
        <ele>32.99</ele>
        <time>2018-06-10T12:41:13Z</time>
      </trkpt>
      <trkpt lat="48.64797" lon="-2.45876">
        <ele>30.86</ele>
        <time>2018-06-10T12:41:25Z</time>
      </trkpt>
      <trkpt lat="48.64799" lon="-2.45896">
        <ele>28.55</ele>
        <time>2018-06-10T12:41:40Z</time>
      </trkpt>
      <trkpt lat="48.64798" lon="-2.4592">
        <ele>27.19</ele>
        <time>2018-06-10T12:41:55Z</time>
      </trkpt>
      <trkpt lat="48.64796" lon="-2.4592">
        <ele>27.65</ele>
        <time>2018-06-10T12:42:24Z</time>
      </trkpt>
      <trkpt lat="48.64796" lon="-2.45921">
        <ele>28.07</ele>
        <time>2018-06-10T12:43:03Z</time>
      </trkpt>
      <trkpt lat="48.64795" lon="-2.45923">
        <ele>28.04</ele>
        <time>2018-06-10T12:43:33Z</time>
      </trkpt>
      <trkpt lat="48.64791" lon="-2.45923">
        <ele>27.51</ele>
        <time>2018-06-10T12:43:55Z</time>
      </trkpt>
      <trkpt lat="48.64771" lon="-2.45924">
        <ele>29.05</ele>
        <time>2018-06-10T12:44:15Z</time>
      </trkpt>
      <trkpt lat="48.64761" lon="-2.45928">
        <ele>29.58</ele>
        <time>2018-06-10T12:44:32Z</time>
      </trkpt>
      <trkpt lat="48.64757" lon="-2.45931">
        <ele>29.42</ele>
        <time>2018-06-10T12:44:56Z</time>
      </trkpt>
      <trkpt lat="48.64752" lon="-2.45934">
        <ele>28.49</ele>
        <time>2018-06-10T12:45:05Z</time>
      </trkpt>
      <trkpt lat="48.64738" lon="-2.45938">
        <ele>28.45</ele>
        <time>2018-06-10T12:45:21Z</time>
      </trkpt>
      <trkpt lat="48.64739" lon="-2.45942">
        <ele>26.78</ele>
        <time>2018-06-10T12:45:44Z</time>
      </trkpt>
      <trkpt lat="48.64745" lon="-2.45951">
        <ele>23.64</ele>
        <time>2018-06-10T12:45:59Z</time>
      </trkpt>
      <trkpt lat="48.64745" lon="-2.45964">
        <ele>20.67</ele>
        <time>2018-06-10T12:46:11Z</time>
      </trkpt>
      <trkpt lat="48.64749" lon="-2.45978">
        <ele>17.2</ele>
        <time>2018-06-10T12:46:25Z</time>
      </trkpt>
      <trkpt lat="48.64749" lon="-2.45979">
        <ele>16.98</ele>
        <time>2018-06-10T12:46:26Z</time>
      </trkpt>
      <trkpt lat="48.6475" lon="-2.45984">
        <ele>16.16</ele>
        <time>2018-06-10T12:46:30Z</time>
      </trkpt>
      <trkpt lat="48.64754" lon="-2.46003">
        <ele>14.19</ele>
        <time>2018-06-10T12:46:46Z</time>
      </trkpt>
      <trkpt lat="48.64759" lon="-2.46022">
        <ele>11.04</ele>
        <time>2018-06-10T12:47:01Z</time>
      </trkpt>
      <trkpt lat="48.64762" lon="-2.46045">
        <ele>8.64</ele>
        <time>2018-06-10T12:47:19Z</time>
      </trkpt>
      <trkpt lat="48.6476" lon="-2.46058">
        <ele>9.24</ele>
        <time>2018-06-10T12:47:28Z</time>
      </trkpt>
      <trkpt lat="48.64747" lon="-2.46076">
        <ele>10.54</ele>
        <time>2018-06-10T12:47:44Z</time>
      </trkpt>
      <trkpt lat="48.64741" lon="-2.46087">
        <ele>10.31</ele>
        <time>2018-06-10T12:48:03Z</time>
      </trkpt>
      <trkpt lat="48.64735" lon="-2.46098">
        <ele>9.5</ele>
        <time>2018-06-10T12:48:28Z</time>
      </trkpt>
      <trkpt lat="48.64732" lon="-2.46104">
        <ele>9.15</ele>
        <time>2018-06-10T12:48:43Z</time>
      </trkpt>
      <trkpt lat="48.64733" lon="-2.46104">
        <ele>9.12</ele>
        <time>2018-06-10T12:49:18Z</time>
      </trkpt>
      <trkpt lat="48.64732" lon="-2.46101">
        <ele>9.2</ele>
        <time>2018-06-10T12:49:52Z</time>
      </trkpt>
      <trkpt lat="48.64731" lon="-2.46102">
        <ele>9.79</ele>
        <time>2018-06-10T12:50:15Z</time>
      </trkpt>
      <trkpt lat="48.64731" lon="-2.461">
        <ele>9.59</ele>
        <time>2018-06-10T12:50:41Z</time>
      </trkpt>
      <trkpt lat="48.64731" lon="-2.461">
        <ele>9.41</ele>
        <time>2018-06-10T12:51:06Z</time>
      </trkpt>
      <trkpt lat="48.64732" lon="-2.46101">
        <ele>9.07</ele>
        <time>2018-06-10T12:51:34Z</time>
      </trkpt>
      <trkpt lat="48.64735" lon="-2.4611">
        <ele>8.21</ele>
        <time>2018-06-10T12:51:43Z</time>
      </trkpt>
      <trkpt lat="48.64743" lon="-2.46134">
        <ele>8.9</ele>
        <time>2018-06-10T12:52:04Z</time>
      </trkpt>
      <trkpt lat="48.64744" lon="-2.46152">
        <ele>10.47</ele>
        <time>2018-06-10T12:52:15Z</time>
      </trkpt>
      <trkpt lat="48.64746" lon="-2.46181">
        <ele>10.06</ele>
        <time>2018-06-10T12:52:33Z</time>
      </trkpt>
      <trkpt lat="48.64746" lon="-2.46184">
        <ele>10.27</ele>
        <time>2018-06-10T12:52:52Z</time>
      </trkpt>
      <trkpt lat="48.64746" lon="-2.46191">
        <ele>10.44</ele>
        <time>2018-06-10T12:53:05Z</time>
      </trkpt>
      <trkpt lat="48.64746" lon="-2.46224">
        <ele>10.46</ele>
        <time>2018-06-10T12:53:24Z</time>
      </trkpt>
      <trkpt lat="48.64747" lon="-2.46246">
        <ele>11.51</ele>
        <time>2018-06-10T12:53:40Z</time>
      </trkpt>
      <trkpt lat="48.64748" lon="-2.46266">
        <ele>12.88</ele>
        <time>2018-06-10T12:53:53Z</time>
      </trkpt>
      <trkpt lat="48.64748" lon="-2.46286">
        <ele>12.49</ele>
        <time>2018-06-10T12:54:07Z</time>
      </trkpt>
      <trkpt lat="48.64743" lon="-2.46302">
        <ele>14.07</ele>
        <time>2018-06-10T12:54:25Z</time>
      </trkpt>
      <trkpt lat="48.64736" lon="-2.46309">
        <ele>17.25</ele>
        <time>2018-06-10T12:54:41Z</time>
      </trkpt>
      <trkpt lat="48.64725" lon="-2.46313">
        <ele>20.3</ele>
        <time>2018-06-10T12:54:57Z</time>
      </trkpt>
      <trkpt lat="48.64717" lon="-2.46321">
        <ele>23.39</ele>
        <time>2018-06-10T12:55:16Z</time>
      </trkpt>
      <trkpt lat="48.64711" lon="-2.46327">
        <ele>27.02</ele>
        <time>2018-06-10T12:55:30Z</time>
      </trkpt>
      <trkpt lat="48.64707" lon="-2.46336">
        <ele>30.03</ele>
        <time>2018-06-10T12:55:45Z</time>
      </trkpt>
      <trkpt lat="48.64702" lon="-2.4634">
        <ele>33.28</ele>
        <time>2018-06-10T12:56:00Z</time>
      </trkpt>
      <trkpt lat="48.64693" lon="-2.4635">
        <ele>36.5</ele>
        <time>2018-06-10T12:56:18Z</time>
      </trkpt>
      <trkpt lat="48.64691" lon="-2.46351">
        <ele>36.94</ele>
        <time>2018-06-10T12:56:20Z</time>
      </trkpt>
      <trkpt lat="48.64684" lon="-2.46359">
        <ele>37.79</ele>
        <time>2018-06-10T12:56:33Z</time>
      </trkpt>
      <trkpt lat="48.64684" lon="-2.46359">
        <ele>37.26</ele>
        <time>2018-06-10T12:56:48Z</time>
      </trkpt>
      <trkpt lat="48.64682" lon="-2.46357">
        <ele>37.65</ele>
        <time>2018-06-10T12:57:09Z</time>
      </trkpt>
      <trkpt lat="48.64686" lon="-2.46354">
        <ele>37.74</ele>
        <time>2018-06-10T12:57:31Z</time>
      </trkpt>
      <trkpt lat="48.64686" lon="-2.46355">
        <ele>37.19</ele>
        <time>2018-06-10T12:57:50Z</time>
      </trkpt>
      <trkpt lat="48.64686" lon="-2.4636">
        <ele>37.42</ele>
        <time>2018-06-10T12:58:06Z</time>
      </trkpt>
      <trkpt lat="48.64687" lon="-2.4636">
        <ele>38.16</ele>
        <time>2018-06-10T12:58:27Z</time>
      </trkpt>
      <trkpt lat="48.64685" lon="-2.46359">
        <ele>38.68</ele>
        <time>2018-06-10T12:58:49Z</time>
      </trkpt>
      <trkpt lat="48.64684" lon="-2.4636">
        <ele>38.19</ele>
        <time>2018-06-10T12:59:19Z</time>
      </trkpt>
      <trkpt lat="48.64685" lon="-2.46359">
        <ele>38.2</ele>
        <time>2018-06-10T12:59:46Z</time>
      </trkpt>
      <trkpt lat="48.64683" lon="-2.46359">
        <ele>38.15</ele>
        <time>2018-06-10T13:00:07Z</time>
      </trkpt>
      <trkpt lat="48.64682" lon="-2.46358">
        <ele>38.78</ele>
        <time>2018-06-10T13:00:34Z</time>
      </trkpt>
      <trkpt lat="48.64681" lon="-2.46357">
        <ele>38.67</ele>
        <time>2018-06-10T13:00:58Z</time>
      </trkpt>
      <trkpt lat="48.64683" lon="-2.46359">
        <ele>38.52</ele>
        <time>2018-06-10T13:01:25Z</time>
      </trkpt>
      <trkpt lat="48.64684" lon="-2.46364">
        <ele>37.91</ele>
        <time>2018-06-10T13:01:34Z</time>
      </trkpt>
      <trkpt lat="48.64696" lon="-2.46381">
        <ele>37.26</ele>
        <time>2018-06-10T13:01:50Z</time>
      </trkpt>
      <trkpt lat="48.64697" lon="-2.46381">
        <ele>36.93</ele>
        <time>2018-06-10T13:01:51Z</time>
      </trkpt>
      <trkpt lat="48.64713" lon="-2.46382">
        <ele>35.35</ele>
        <time>2018-06-10T13:02:07Z</time>
      </trkpt>
      <trkpt lat="48.64725" lon="-2.46391">
        <ele>36.44</ele>
        <time>2018-06-10T13:02:17Z</time>
      </trkpt>
      <trkpt lat="48.64731" lon="-2.46394">
        <ele>36.36</ele>
        <time>2018-06-10T13:02:22Z</time>
      </trkpt>
      <trkpt lat="48.64754" lon="-2.4641">
        <ele>36.31</ele>
        <time>2018-06-10T13:02:43Z</time>
      </trkpt>
      <trkpt lat="48.64773" lon="-2.46413">
        <ele>35.36</ele>
        <time>2018-06-10T13:03:00Z</time>
      </trkpt>
      <trkpt lat="48.64775" lon="-2.46413">
        <ele>35.28</ele>
        <time>2018-06-10T13:03:02Z</time>
      </trkpt>
      <trkpt lat="48.64788" lon="-2.46425">
        <ele>34.36</ele>
        <time>2018-06-10T13:03:16Z</time>
      </trkpt>
      <trkpt lat="48.64803" lon="-2.46442">
        <ele>34.55</ele>
        <time>2018-06-10T13:03:33Z</time>
      </trkpt>
      <trkpt lat="48.64809" lon="-2.46455">
        <ele>33.91</ele>
        <time>2018-06-10T13:03:45Z</time>
      </trkpt>
      <trkpt lat="48.64823" lon="-2.46471">
        <ele>33.16</ele>
        <time>2018-06-10T13:04:01Z</time>
      </trkpt>
      <trkpt lat="48.64823" lon="-2.46472">
        <ele>33.17</ele>
        <time>2018-06-10T13:04:02Z</time>
      </trkpt>
      <trkpt lat="48.64831" lon="-2.46477">
        <ele>33.22</ele>
        <time>2018-06-10T13:04:09Z</time>
      </trkpt>
      <trkpt lat="48.64845" lon="-2.46486">
        <ele>35.11</ele>
        <time>2018-06-10T13:04:23Z</time>
      </trkpt>
      <trkpt lat="48.64858" lon="-2.46506">
        <ele>36.9</ele>
        <time>2018-06-10T13:04:38Z</time>
      </trkpt>
      <trkpt lat="48.64869" lon="-2.46507">
        <ele>37.01</ele>
        <time>2018-06-10T13:04:47Z</time>
      </trkpt>
      <trkpt lat="48.64876" lon="-2.46537">
        <ele>37.3</ele>
        <time>2018-06-10T13:05:05Z</time>
      </trkpt>
      <trkpt lat="48.64877" lon="-2.46568">
        <ele>37.88</ele>
        <time>2018-06-10T13:05:23Z</time>
      </trkpt>
      <trkpt lat="48.64876" lon="-2.466">
        <ele>37.56</ele>
        <time>2018-06-10T13:05:41Z</time>
      </trkpt>
      <trkpt lat="48.64883" lon="-2.46628">
        <ele>35.69</ele>
        <time>2018-06-10T13:06:00Z</time>
      </trkpt>
      <trkpt lat="48.64895" lon="-2.46649">
        <ele>34.65</ele>
        <time>2018-06-10T13:06:16Z</time>
      </trkpt>
      <trkpt lat="48.64906" lon="-2.46676">
        <ele>35.43</ele>
        <time>2018-06-10T13:06:34Z</time>
      </trkpt>
      <trkpt lat="48.64917" lon="-2.46711">
        <ele>35.16</ele>
        <time>2018-06-10T13:06:55Z</time>
      </trkpt>
      <trkpt lat="48.64932" lon="-2.46723">
        <ele>33.75</ele>
        <time>2018-06-10T13:07:11Z</time>
      </trkpt>
      <trkpt lat="48.64945" lon="-2.4674">
        <ele>31.88</ele>
        <time>2018-06-10T13:07:27Z</time>
      </trkpt>
      <trkpt lat="48.64946" lon="-2.46745">
        <ele>31.4</ele>
        <time>2018-06-10T13:07:43Z</time>
      </trkpt>
      <trkpt lat="48.64945" lon="-2.46743">
        <ele>32.14</ele>
        <time>2018-06-10T13:08:02Z</time>
      </trkpt>
      <trkpt lat="48.64943" lon="-2.46742">
        <ele>32.06</ele>
        <time>2018-06-10T13:08:20Z</time>
      </trkpt>
      <trkpt lat="48.64943" lon="-2.46744">
        <ele>32.09</ele>
        <time>2018-06-10T13:08:36Z</time>
      </trkpt>
      <trkpt lat="48.64941" lon="-2.46742">
        <ele>32.09</ele>
        <time>2018-06-10T13:09:03Z</time>
      </trkpt>
      <trkpt lat="48.6494" lon="-2.46743">
        <ele>32.01</ele>
        <time>2018-06-10T13:09:05Z</time>
      </trkpt>
      <trkpt lat="48.64938" lon="-2.46744">
        <ele>32.34</ele>
        <time>2018-06-10T13:09:07Z</time>
      </trkpt>
      <trkpt lat="48.64927" lon="-2.46751">
        <ele>33.13</ele>
        <time>2018-06-10T13:09:22Z</time>
      </trkpt>
      <trkpt lat="48.64915" lon="-2.46759">
        <ele>34.33</ele>
        <time>2018-06-10T13:09:38Z</time>
      </trkpt>
      <trkpt lat="48.64904" lon="-2.46767">
        <ele>35.5</ele>
        <time>2018-06-10T13:09:53Z</time>
      </trkpt>
      <trkpt lat="48.64895" lon="-2.46771">
        <ele>36.58</ele>
        <time>2018-06-10T13:10:08Z</time>
      </trkpt>
      <trkpt lat="48.64883" lon="-2.46768">
        <ele>37.68</ele>
        <time>2018-06-10T13:10:25Z</time>
      </trkpt>
      <trkpt lat="48.64883" lon="-2.46768">
        <ele>37.56</ele>
        <time>2018-06-10T13:10:26Z</time>
      </trkpt>
      <trkpt lat="48.64862" lon="-2.4677">
        <ele>36.73</ele>
        <time>2018-06-10T13:10:45Z</time>
      </trkpt>
      <trkpt lat="48.64842" lon="-2.46776">
        <ele>37.75</ele>
        <time>2018-06-10T13:11:05Z</time>
      </trkpt>
      <trkpt lat="48.64833" lon="-2.46781">
        <ele>38.41</ele>
        <time>2018-06-10T13:11:15Z</time>
      </trkpt>
      <trkpt lat="48.64829" lon="-2.46789">
        <ele>39.47</ele>
        <time>2018-06-10T13:11:31Z</time>
      </trkpt>
      <trkpt lat="48.64828" lon="-2.4679">
        <ele>39.42</ele>
        <time>2018-06-10T13:11:33Z</time>
      </trkpt>
      <trkpt lat="48.64827" lon="-2.46796">
        <ele>39.21</ele>
        <time>2018-06-10T13:11:37Z</time>
      </trkpt>
      <trkpt lat="48.64824" lon="-2.46828">
        <ele>40.03</ele>
        <time>2018-06-10T13:11:56Z</time>
      </trkpt>
      <trkpt lat="48.64822" lon="-2.46852">
        <ele>40.64</ele>
        <time>2018-06-10T13:12:12Z</time>
      </trkpt>
      <trkpt lat="48.6482" lon="-2.46881">
        <ele>41.1</ele>
        <time>2018-06-10T13:12:30Z</time>
      </trkpt>
      <trkpt lat="48.64819" lon="-2.46912">
        <ele>41.58</ele>
        <time>2018-06-10T13:12:49Z</time>
      </trkpt>
      <trkpt lat="48.64812" lon="-2.46931">
        <ele>41.45</ele>
        <time>2018-06-10T13:13:05Z</time>
      </trkpt>
      <trkpt lat="48.64801" lon="-2.46947">
        <ele>40.77</ele>
        <time>2018-06-10T13:13:22Z</time>
      </trkpt>
      <trkpt lat="48.6479" lon="-2.46967">
        <ele>39.91</ele>
        <time>2018-06-10T13:13:40Z</time>
      </trkpt>
      <trkpt lat="48.64787" lon="-2.46969">
        <ele>39.74</ele>
        <time>2018-06-10T13:13:44Z</time>
      </trkpt>
      <trkpt lat="48.64766" lon="-2.46978">
        <ele>38.63</ele>
        <time>2018-06-10T13:14:05Z</time>
      </trkpt>
      <trkpt lat="48.64749" lon="-2.46984">
        <ele>39.27</ele>
        <time>2018-06-10T13:14:23Z</time>
      </trkpt>
      <trkpt lat="48.64734" lon="-2.46986">
        <ele>38.92</ele>
        <time>2018-06-10T13:14:38Z</time>
      </trkpt>
      <trkpt lat="48.64723" lon="-2.46989">
        <ele>38.08</ele>
        <time>2018-06-10T13:14:54Z</time>
      </trkpt>
      <trkpt lat="48.64719" lon="-2.46993">
        <ele>38.22</ele>
        <time>2018-06-10T13:14:58Z</time>
      </trkpt>
      <trkpt lat="48.64709" lon="-2.47004">
        <ele>38.4</ele>
        <time>2018-06-10T13:15:10Z</time>
      </trkpt>
      <trkpt lat="48.64707" lon="-2.47007">
        <ele>37.27</ele>
        <time>2018-06-10T13:15:13Z</time>
      </trkpt>
      <trkpt lat="48.64691" lon="-2.47018">
        <ele>38.32</ele>
        <time>2018-06-10T13:15:29Z</time>
      </trkpt>
      <trkpt lat="48.64672" lon="-2.47029">
        <ele>38.01</ele>
        <time>2018-06-10T13:15:46Z</time>
      </trkpt>
      <trkpt lat="48.64664" lon="-2.47033">
        <ele>38.01</ele>
        <time>2018-06-10T13:15:55Z</time>
      </trkpt>
      <trkpt lat="48.6466" lon="-2.47035">
        <ele>39.9</ele>
        <time>2018-06-10T13:15:59Z</time>
      </trkpt>
      <trkpt lat="48.6464" lon="-2.47043">
        <ele>39.59</ele>
        <time>2018-06-10T13:16:18Z</time>
      </trkpt>
      <trkpt lat="48.64619" lon="-2.47059">
        <ele>39.61</ele>
        <time>2018-06-10T13:16:39Z</time>
      </trkpt>
      <trkpt lat="48.64608" lon="-2.47075">
        <ele>39.49</ele>
        <time>2018-06-10T13:16:54Z</time>
      </trkpt>
      <trkpt lat="48.646" lon="-2.47088">
        <ele>39.31</ele>
        <time>2018-06-10T13:17:07Z</time>
      </trkpt>
      <trkpt lat="48.6459" lon="-2.4711">
        <ele>39.06</ele>
        <time>2018-06-10T13:17:23Z</time>
      </trkpt>
      <trkpt lat="48.64574" lon="-2.47138">
        <ele>38.66</ele>
        <time>2018-06-10T13:17:46Z</time>
      </trkpt>
      <trkpt lat="48.64571" lon="-2.47146">
        <ele>37.66</ele>
        <time>2018-06-10T13:17:53Z</time>
      </trkpt>
      <trkpt lat="48.64558" lon="-2.47169">
        <ele>38.83</ele>
        <time>2018-06-10T13:18:12Z</time>
      </trkpt>
      <trkpt lat="48.64556" lon="-2.47171">
        <ele>39.15</ele>
        <time>2018-06-10T13:18:15Z</time>
      </trkpt>
      <trkpt lat="48.64543" lon="-2.47187">
        <ele>39.26</ele>
        <time>2018-06-10T13:18:33Z</time>
      </trkpt>
      <trkpt lat="48.64536" lon="-2.47186">
        <ele>39.33</ele>
        <time>2018-06-10T13:18:42Z</time>
      </trkpt>
      <trkpt lat="48.64522" lon="-2.47181">
        <ele>40.76</ele>
        <time>2018-06-10T13:19:01Z</time>
      </trkpt>
      <trkpt lat="48.64519" lon="-2.4718">
        <ele>40.58</ele>
        <time>2018-06-10T13:19:05Z</time>
      </trkpt>
      <trkpt lat="48.64509" lon="-2.47176">
        <ele>40.48</ele>
        <time>2018-06-10T13:19:15Z</time>
      </trkpt>
      <trkpt lat="48.64505" lon="-2.47177">
        <ele>41.13</ele>
        <time>2018-06-10T13:19:19Z</time>
      </trkpt>
      <trkpt lat="48.64495" lon="-2.47189">
        <ele>41.34</ele>
        <time>2018-06-10T13:19:33Z</time>
      </trkpt>
      <trkpt lat="48.64488" lon="-2.472">
        <ele>41.75</ele>
        <time>2018-06-10T13:19:49Z</time>
      </trkpt>
      <trkpt lat="48.64487" lon="-2.472">
        <ele>41.66</ele>
        <time>2018-06-10T13:19:50Z</time>
      </trkpt>
      <trkpt lat="48.64473" lon="-2.47217">
        <ele>41.31</ele>
        <time>2018-06-10T13:20:05Z</time>
      </trkpt>
      <trkpt lat="48.64462" lon="-2.47231">
        <ele>40.11</ele>
        <time>2018-06-10T13:20:19Z</time>
      </trkpt>
      <trkpt lat="48.64458" lon="-2.47234">
        <ele>39.78</ele>
        <time>2018-06-10T13:20:24Z</time>
      </trkpt>
      <trkpt lat="48.64454" lon="-2.47241">
        <ele>40.02</ele>
        <time>2018-06-10T13:20:29Z</time>
      </trkpt>
      <trkpt lat="48.64446" lon="-2.47257">
        <ele>39.82</ele>
        <time>2018-06-10T13:20:42Z</time>
      </trkpt>
      <trkpt lat="48.64445" lon="-2.47261">
        <ele>39.74</ele>
        <time>2018-06-10T13:20:45Z</time>
      </trkpt>
      <trkpt lat="48.64433" lon="-2.47284">
        <ele>39.38</ele>
        <time>2018-06-10T13:21:02Z</time>
      </trkpt>
      <trkpt lat="48.6443" lon="-2.47296">
        <ele>39.39</ele>
        <time>2018-06-10T13:21:10Z</time>
      </trkpt>
      <trkpt lat="48.64416" lon="-2.47315">
        <ele>39.84</ele>
        <time>2018-06-10T13:21:27Z</time>
      </trkpt>
      <trkpt lat="48.64404" lon="-2.47331">
        <ele>40.26</ele>
        <time>2018-06-10T13:21:43Z</time>
      </trkpt>
      <trkpt lat="48.64391" lon="-2.47347">
        <ele>42.1</ele>
        <time>2018-06-10T13:22:02Z</time>
      </trkpt>
      <trkpt lat="48.64381" lon="-2.47368">
        <ele>41.55</ele>
        <time>2018-06-10T13:22:19Z</time>
      </trkpt>
      <trkpt lat="48.64374" lon="-2.47385">
        <ele>42</ele>
        <time>2018-06-10T13:22:31Z</time>
      </trkpt>
      <trkpt lat="48.64363" lon="-2.47402">
        <ele>42.56</ele>
        <time>2018-06-10T13:22:46Z</time>
      </trkpt>
      <trkpt lat="48.64344" lon="-2.47412">
        <ele>45.08</ele>
        <time>2018-06-10T13:23:07Z</time>
      </trkpt>
      <trkpt lat="48.64335" lon="-2.47409">
        <ele>46.93</ele>
        <time>2018-06-10T13:23:19Z</time>
      </trkpt>
      <trkpt lat="48.64319" lon="-2.47408">
        <ele>49.11</ele>
        <time>2018-06-10T13:23:37Z</time>
      </trkpt>
      <trkpt lat="48.64303" lon="-2.47404">
        <ele>51.01</ele>
        <time>2018-06-10T13:23:56Z</time>
      </trkpt>
      <trkpt lat="48.6429" lon="-2.47398">
        <ele>51.92</ele>
        <time>2018-06-10T13:24:10Z</time>
      </trkpt>
      <trkpt lat="48.64287" lon="-2.47398">
        <ele>52.08</ele>
        <time>2018-06-10T13:24:13Z</time>
      </trkpt>
      <trkpt lat="48.64271" lon="-2.47401">
        <ele>53.1</ele>
        <time>2018-06-10T13:24:29Z</time>
      </trkpt>
      <trkpt lat="48.6425" lon="-2.47405">
        <ele>52.51</ele>
        <time>2018-06-10T13:24:45Z</time>
      </trkpt>
      <trkpt lat="48.64228" lon="-2.47402">
        <ele>51.34</ele>
        <time>2018-06-10T13:25:05Z</time>
      </trkpt>
      <trkpt lat="48.64217" lon="-2.474">
        <ele>51.41</ele>
        <time>2018-06-10T13:25:22Z</time>
      </trkpt>
      <trkpt lat="48.6421" lon="-2.474">
        <ele>50.74</ele>
        <time>2018-06-10T13:25:34Z</time>
      </trkpt>
      <trkpt lat="48.64206" lon="-2.474">
        <ele>50.24</ele>
        <time>2018-06-10T13:25:38Z</time>
      </trkpt>
      <trkpt lat="48.64194" lon="-2.47396">
        <ele>50.43</ele>
        <time>2018-06-10T13:25:49Z</time>
      </trkpt>
      <trkpt lat="48.64177" lon="-2.47392">
        <ele>51.3</ele>
        <time>2018-06-10T13:26:05Z</time>
      </trkpt>
      <trkpt lat="48.64173" lon="-2.47391">
        <ele>52.27</ele>
        <time>2018-06-10T13:26:10Z</time>
      </trkpt>
      <trkpt lat="48.64169" lon="-2.47408">
        <ele>51.47</ele>
        <time>2018-06-10T13:26:24Z</time>
      </trkpt>
      <trkpt lat="48.6417" lon="-2.47412">
        <ele>51.41</ele>
        <time>2018-06-10T13:26:27Z</time>
      </trkpt>
      <trkpt lat="48.64172" lon="-2.47434">
        <ele>49.57</ele>
        <time>2018-06-10T13:26:43Z</time>
      </trkpt>
      <trkpt lat="48.64169" lon="-2.47466">
        <ele>47.66</ele>
        <time>2018-06-10T13:27:01Z</time>
      </trkpt>
      <trkpt lat="48.64162" lon="-2.47493">
        <ele>45.14</ele>
        <time>2018-06-10T13:27:18Z</time>
      </trkpt>
      <trkpt lat="48.64157" lon="-2.47517">
        <ele>43.56</ele>
        <time>2018-06-10T13:27:33Z</time>
      </trkpt>
      <trkpt lat="48.64158" lon="-2.47545">
        <ele>41.74</ele>
        <time>2018-06-10T13:27:50Z</time>
      </trkpt>
      <trkpt lat="48.64158" lon="-2.47546">
        <ele>42.04</ele>
        <time>2018-06-10T13:27:51Z</time>
      </trkpt>
      <trkpt lat="48.64159" lon="-2.47553">
        <ele>42.05</ele>
        <time>2018-06-10T13:27:55Z</time>
      </trkpt>
      <trkpt lat="48.64161" lon="-2.47593">
        <ele>42.32</ele>
        <time>2018-06-10T13:28:14Z</time>
      </trkpt>
      <trkpt lat="48.64161" lon="-2.47622">
        <ele>43.81</ele>
        <time>2018-06-10T13:28:31Z</time>
      </trkpt>
      <trkpt lat="48.64161" lon="-2.47648">
        <ele>45.64</ele>
        <time>2018-06-10T13:28:46Z</time>
      </trkpt>
      <trkpt lat="48.64158" lon="-2.47658">
        <ele>46.03</ele>
        <time>2018-06-10T13:28:52Z</time>
      </trkpt>
      <trkpt lat="48.64156" lon="-2.47665">
        <ele>46.53</ele>
        <time>2018-06-10T13:28:56Z</time>
      </trkpt>
      <trkpt lat="48.64156" lon="-2.47692">
        <ele>48.78</ele>
        <time>2018-06-10T13:29:15Z</time>
      </trkpt>
      <trkpt lat="48.6416" lon="-2.47714">
        <ele>49.05</ele>
        <time>2018-06-10T13:29:29Z</time>
      </trkpt>
      <trkpt lat="48.64163" lon="-2.4774">
        <ele>48.69</ele>
        <time>2018-06-10T13:29:44Z</time>
      </trkpt>
      <trkpt lat="48.64158" lon="-2.47768">
        <ele>47.66</ele>
        <time>2018-06-10T13:30:00Z</time>
      </trkpt>
      <trkpt lat="48.64161" lon="-2.47794">
        <ele>47.73</ele>
        <time>2018-06-10T13:30:15Z</time>
      </trkpt>
      <trkpt lat="48.64175" lon="-2.47819">
        <ele>48.16</ele>
        <time>2018-06-10T13:30:33Z</time>
      </trkpt>
      <trkpt lat="48.64187" lon="-2.47849">
        <ele>47.52</ele>
        <time>2018-06-10T13:30:53Z</time>
      </trkpt>
      <trkpt lat="48.64187" lon="-2.47856">
        <ele>47.13</ele>
        <time>2018-06-10T13:30:57Z</time>
      </trkpt>
      <trkpt lat="48.64188" lon="-2.4786">
        <ele>46.84</ele>
        <time>2018-06-10T13:31:00Z</time>
      </trkpt>
      <trkpt lat="48.6419" lon="-2.4788">
        <ele>46.15</ele>
        <time>2018-06-10T13:31:12Z</time>
      </trkpt>
      <trkpt lat="48.64191" lon="-2.47905">
        <ele>46.3</ele>
        <time>2018-06-10T13:31:25Z</time>
      </trkpt>
      <trkpt lat="48.64191" lon="-2.47917">
        <ele>46.01</ele>
        <time>2018-06-10T13:31:32Z</time>
      </trkpt>
      <trkpt lat="48.64191" lon="-2.47937">
        <ele>45.61</ele>
        <time>2018-06-10T13:31:45Z</time>
      </trkpt>
      <trkpt lat="48.64188" lon="-2.47945">
        <ele>45.43</ele>
        <time>2018-06-10T13:31:54Z</time>
      </trkpt>
      <trkpt lat="48.64184" lon="-2.47947">
        <ele>45.99</ele>
        <time>2018-06-10T13:31:58Z</time>
      </trkpt>
      <trkpt lat="48.64163" lon="-2.47959">
        <ele>47.73</ele>
        <time>2018-06-10T13:32:18Z</time>
      </trkpt>
      <trkpt lat="48.64143" lon="-2.47964">
        <ele>47.37</ele>
        <time>2018-06-10T13:32:36Z</time>
      </trkpt>
      <trkpt lat="48.64123" lon="-2.47976">
        <ele>47.29</ele>
        <time>2018-06-10T13:32:54Z</time>
      </trkpt>
      <trkpt lat="48.64107" lon="-2.47986">
        <ele>47.82</ele>
        <time>2018-06-10T13:33:10Z</time>
      </trkpt>
      <trkpt lat="48.6409" lon="-2.47997">
        <ele>48.48</ele>
        <time>2018-06-10T13:33:26Z</time>
      </trkpt>
      <trkpt lat="48.64069" lon="-2.48011">
        <ele>49.95</ele>
        <time>2018-06-10T13:33:46Z</time>
      </trkpt>
      <trkpt lat="48.64062" lon="-2.48018">
        <ele>50.97</ele>
        <time>2018-06-10T13:33:57Z</time>
      </trkpt>
      <trkpt lat="48.64059" lon="-2.48023">
        <ele>50.78</ele>
        <time>2018-06-10T13:34:12Z</time>
      </trkpt>
      <trkpt lat="48.6406" lon="-2.48025">
        <ele>51.34</ele>
        <time>2018-06-10T13:34:33Z</time>
      </trkpt>
      <trkpt lat="48.64059" lon="-2.48023">
        <ele>51.35</ele>
        <time>2018-06-10T13:34:57Z</time>
      </trkpt>
      <trkpt lat="48.6406" lon="-2.48022">
        <ele>51.06</ele>
        <time>2018-06-10T13:35:23Z</time>
      </trkpt>
      <trkpt lat="48.64059" lon="-2.48019">
        <ele>50.95</ele>
        <time>2018-06-10T13:35:46Z</time>
      </trkpt>
      <trkpt lat="48.64056" lon="-2.48014">
        <ele>50.93</ele>
        <time>2018-06-10T13:36:12Z</time>
      </trkpt>
      <trkpt lat="48.64057" lon="-2.48005">
        <ele>51.08</ele>
        <time>2018-06-10T13:36:19Z</time>
      </trkpt>
      <trkpt lat="48.64058" lon="-2.47994">
        <ele>51.25</ele>
        <time>2018-06-10T13:36:33Z</time>
      </trkpt>
      <trkpt lat="48.6406" lon="-2.47996">
        <ele>50.59</ele>
        <time>2018-06-10T13:36:42Z</time>
      </trkpt>
      <trkpt lat="48.64064" lon="-2.48">
        <ele>50.58</ele>
        <time>2018-06-10T13:36:46Z</time>
      </trkpt>
      <trkpt lat="48.64064" lon="-2.48006">
        <ele>50.2</ele>
        <time>2018-06-10T13:36:49Z</time>
      </trkpt>
      <trkpt lat="48.64065" lon="-2.48012">
        <ele>50.2</ele>
        <time>2018-06-10T13:36:53Z</time>
      </trkpt>
      <trkpt lat="48.64057" lon="-2.48016">
        <ele>51.03</ele>
        <time>2018-06-10T13:37:08Z</time>
      </trkpt>
      <trkpt lat="48.64059" lon="-2.4802">
        <ele>50.29</ele>
        <time>2018-06-10T13:37:29Z</time>
      </trkpt>
      <trkpt lat="48.64061" lon="-2.48019">
        <ele>50.4</ele>
        <time>2018-06-10T13:37:56Z</time>
      </trkpt>
      <trkpt lat="48.64063" lon="-2.48016">
        <ele>50.04</ele>
        <time>2018-06-10T13:38:18Z</time>
      </trkpt>
      <trkpt lat="48.6406" lon="-2.4802">
        <ele>50.55</ele>
        <time>2018-06-10T13:38:32Z</time>
      </trkpt>
      <trkpt lat="48.64062" lon="-2.48021">
        <ele>50.93</ele>
        <time>2018-06-10T13:38:51Z</time>
      </trkpt>
      <trkpt lat="48.64062" lon="-2.48019">
        <ele>49.74</ele>
        <time>2018-06-10T13:39:00Z</time>
      </trkpt>
      <trkpt lat="48.64062" lon="-2.48017">
        <ele>50.52</ele>
        <time>2018-06-10T13:39:23Z</time>
      </trkpt>
      <trkpt lat="48.64062" lon="-2.48018">
        <ele>50.07</ele>
        <time>2018-06-10T13:39:46Z</time>
      </trkpt>
      <trkpt lat="48.64067" lon="-2.48028">
        <ele>49.04</ele>
        <time>2018-06-10T13:40:01Z</time>
      </trkpt>
      <trkpt lat="48.64075" lon="-2.4805">
        <ele>49.42</ele>
        <time>2018-06-10T13:40:15Z</time>
      </trkpt>
      <trkpt lat="48.64085" lon="-2.48066">
        <ele>49.46</ele>
        <time>2018-06-10T13:40:27Z</time>
      </trkpt>
      <trkpt lat="48.64092" lon="-2.48091">
        <ele>48.44</ele>
        <time>2018-06-10T13:40:40Z</time>
      </trkpt>
      <trkpt lat="48.64106" lon="-2.48121">
        <ele>49.12</ele>
        <time>2018-06-10T13:40:58Z</time>
      </trkpt>
      <trkpt lat="48.64118" lon="-2.48141">
        <ele>48.54</ele>
        <time>2018-06-10T13:41:14Z</time>
      </trkpt>
      <trkpt lat="48.64124" lon="-2.48144">
        <ele>48.11</ele>
        <time>2018-06-10T13:41:19Z</time>
      </trkpt>
      <trkpt lat="48.64129" lon="-2.48147">
        <ele>48.17</ele>
        <time>2018-06-10T13:41:23Z</time>
      </trkpt>
      <trkpt lat="48.64148" lon="-2.48155">
        <ele>47.8</ele>
        <time>2018-06-10T13:41:40Z</time>
      </trkpt>
      <trkpt lat="48.64158" lon="-2.4816">
        <ele>47.77</ele>
        <time>2018-06-10T13:41:50Z</time>
      </trkpt>
      <trkpt lat="48.64166" lon="-2.48194">
        <ele>47.06</ele>
        <time>2018-06-10T13:42:10Z</time>
      </trkpt>
      <trkpt lat="48.6417" lon="-2.48225">
        <ele>47.5</ele>
        <time>2018-06-10T13:42:26Z</time>
      </trkpt>
      <trkpt lat="48.64171" lon="-2.48237">
        <ele>47.35</ele>
        <time>2018-06-10T13:42:34Z</time>
      </trkpt>
      <trkpt lat="48.6417" lon="-2.48246">
        <ele>47.7</ele>
        <time>2018-06-10T13:42:40Z</time>
      </trkpt>
      <trkpt lat="48.64171" lon="-2.48263">
        <ele>47.76</ele>
        <time>2018-06-10T13:42:50Z</time>
      </trkpt>
      <trkpt lat="48.64159" lon="-2.48283">
        <ele>47.3</ele>
        <time>2018-06-10T13:43:05Z</time>
      </trkpt>
      <trkpt lat="48.64157" lon="-2.48284">
        <ele>47.18</ele>
        <time>2018-06-10T13:43:07Z</time>
      </trkpt>
      <trkpt lat="48.64155" lon="-2.48284">
        <ele>46.93</ele>
        <time>2018-06-10T13:43:09Z</time>
      </trkpt>
      <trkpt lat="48.64153" lon="-2.48281">
        <ele>47.85</ele>
        <time>2018-06-10T13:43:12Z</time>
      </trkpt>
      <trkpt lat="48.64147" lon="-2.4828">
        <ele>47.02</ele>
        <time>2018-06-10T13:43:17Z</time>
      </trkpt>
      <trkpt lat="48.64134" lon="-2.48268">
        <ele>47.15</ele>
        <time>2018-06-10T13:43:31Z</time>
      </trkpt>
      <trkpt lat="48.64116" lon="-2.48255">
        <ele>48.51</ele>
        <time>2018-06-10T13:43:49Z</time>
      </trkpt>
      <trkpt lat="48.64114" lon="-2.48253">
        <ele>49.1</ele>
        <time>2018-06-10T13:44:05Z</time>
      </trkpt>
      <trkpt lat="48.64109" lon="-2.4825">
        <ele>49.5</ele>
        <time>2018-06-10T13:44:10Z</time>
      </trkpt>
      <trkpt lat="48.64091" lon="-2.48242">
        <ele>52.73</ele>
        <time>2018-06-10T13:44:28Z</time>
      </trkpt>
      <trkpt lat="48.64087" lon="-2.48239">
        <ele>52.3</ele>
        <time>2018-06-10T13:44:45Z</time>
      </trkpt>
      <trkpt lat="48.64085" lon="-2.48238">
        <ele>51.98</ele>
        <time>2018-06-10T13:45:06Z</time>
      </trkpt>
      <trkpt lat="48.64085" lon="-2.48233">
        <ele>52.22</ele>
        <time>2018-06-10T13:45:28Z</time>
      </trkpt>
      <trkpt lat="48.64085" lon="-2.48234">
        <ele>52.25</ele>
        <time>2018-06-10T13:45:58Z</time>
      </trkpt>
      <trkpt lat="48.64086" lon="-2.48233">
        <ele>51.93</ele>
        <time>2018-06-10T13:46:29Z</time>
      </trkpt>
      <trkpt lat="48.64086" lon="-2.48233">
        <ele>51.87</ele>
        <time>2018-06-10T13:47:03Z</time>
      </trkpt>
      <trkpt lat="48.64087" lon="-2.48232">
        <ele>51.99</ele>
        <time>2018-06-10T13:47:37Z</time>
      </trkpt>
      <trkpt lat="48.64086" lon="-2.48232">
        <ele>51.61</ele>
        <time>2018-06-10T13:48:05Z</time>
      </trkpt>
      <trkpt lat="48.64083" lon="-2.48232">
        <ele>51.81</ele>
        <time>2018-06-10T13:48:19Z</time>
      </trkpt>
      <trkpt lat="48.64075" lon="-2.48225">
        <ele>52.17</ele>
        <time>2018-06-10T13:48:37Z</time>
      </trkpt>
      <trkpt lat="48.64069" lon="-2.48221">
        <ele>51.52</ele>
        <time>2018-06-10T13:48:46Z</time>
      </trkpt>
      <trkpt lat="48.6405" lon="-2.48208">
        <ele>51.71</ele>
        <time>2018-06-10T13:49:05Z</time>
      </trkpt>
      <trkpt lat="48.64031" lon="-2.48194">
        <ele>51.02</ele>
        <time>2018-06-10T13:49:22Z</time>
      </trkpt>
      <trkpt lat="48.64012" lon="-2.48181">
        <ele>52.05</ele>
        <time>2018-06-10T13:49:39Z</time>
      </trkpt>
      <trkpt lat="48.6401" lon="-2.48178">
        <ele>51.93</ele>
        <time>2018-06-10T13:49:42Z</time>
      </trkpt>
      <trkpt lat="48.64006" lon="-2.48175">
        <ele>52.54</ele>
        <time>2018-06-10T13:49:46Z</time>
      </trkpt>
      <trkpt lat="48.63986" lon="-2.48157">
        <ele>54.82</ele>
        <time>2018-06-10T13:50:05Z</time>
      </trkpt>
      <trkpt lat="48.63979" lon="-2.48152">
        <ele>55.44</ele>
        <time>2018-06-10T13:50:11Z</time>
      </trkpt>
      <trkpt lat="48.63976" lon="-2.48147">
        <ele>55.35</ele>
        <time>2018-06-10T13:50:15Z</time>
      </trkpt>
      <trkpt lat="48.63963" lon="-2.48133">
        <ele>57.26</ele>
        <time>2018-06-10T13:50:29Z</time>
      </trkpt>
      <trkpt lat="48.6396" lon="-2.48134">
        <ele>56.8</ele>
        <time>2018-06-10T13:50:32Z</time>
      </trkpt>
      <trkpt lat="48.63958" lon="-2.48141">
        <ele>56.2</ele>
        <time>2018-06-10T13:50:46Z</time>
      </trkpt>
      <trkpt lat="48.6396" lon="-2.48146">
        <ele>56.05</ele>
        <time>2018-06-10T13:50:57Z</time>
      </trkpt>
      <trkpt lat="48.63961" lon="-2.48148">
        <ele>56.16</ele>
        <time>2018-06-10T13:51:13Z</time>
      </trkpt>
      <trkpt lat="48.6396" lon="-2.48151">
        <ele>55.44</ele>
        <time>2018-06-10T13:51:41Z</time>
      </trkpt>
      <trkpt lat="48.63959" lon="-2.48151">
        <ele>56.13</ele>
        <time>2018-06-10T13:52:21Z</time>
      </trkpt>
      <trkpt lat="48.6396" lon="-2.48148">
        <ele>56.08</ele>
        <time>2018-06-10T13:52:49Z</time>
      </trkpt>
      <trkpt lat="48.6396" lon="-2.48149">
        <ele>56</ele>
        <time>2018-06-10T13:53:16Z</time>
      </trkpt>
      <trkpt lat="48.6396" lon="-2.48147">
        <ele>55.95</ele>
        <time>2018-06-10T13:53:40Z</time>
      </trkpt>
      <trkpt lat="48.63957" lon="-2.48142">
        <ele>56.57</ele>
        <time>2018-06-10T13:54:02Z</time>
      </trkpt>
      <trkpt lat="48.63956" lon="-2.48138">
        <ele>56.02</ele>
        <time>2018-06-10T13:54:25Z</time>
      </trkpt>
      <trkpt lat="48.63959" lon="-2.48139">
        <ele>56.13</ele>
        <time>2018-06-10T13:54:48Z</time>
      </trkpt>
      <trkpt lat="48.63956" lon="-2.48139">
        <ele>56.4</ele>
        <time>2018-06-10T13:55:10Z</time>
      </trkpt>
      <trkpt lat="48.63959" lon="-2.48138">
        <ele>56.34</ele>
        <time>2018-06-10T13:55:28Z</time>
      </trkpt>
      <trkpt lat="48.63958" lon="-2.48137">
        <ele>55.66</ele>
        <time>2018-06-10T13:55:49Z</time>
      </trkpt>
      <trkpt lat="48.63959" lon="-2.48136">
        <ele>56.31</ele>
        <time>2018-06-10T13:56:06Z</time>
      </trkpt>
      <trkpt lat="48.63963" lon="-2.48128">
        <ele>56.47</ele>
        <time>2018-06-10T13:56:28Z</time>
      </trkpt>
      <trkpt lat="48.63973" lon="-2.48139">
        <ele>55.98</ele>
        <time>2018-06-10T13:56:40Z</time>
      </trkpt>
      <trkpt lat="48.63982" lon="-2.48152">
        <ele>54.51</ele>
        <time>2018-06-10T13:56:53Z</time>
      </trkpt>
      <trkpt lat="48.63985" lon="-2.48156">
        <ele>53.88</ele>
        <time>2018-06-10T13:56:56Z</time>
      </trkpt>
      <trkpt lat="48.63996" lon="-2.48161">
        <ele>53.93</ele>
        <time>2018-06-10T13:57:05Z</time>
      </trkpt>
      <trkpt lat="48.64006" lon="-2.48167">
        <ele>52.72</ele>
        <time>2018-06-10T13:57:14Z</time>
      </trkpt>
      <trkpt lat="48.6402" lon="-2.4818">
        <ele>51.52</ele>
        <time>2018-06-10T13:57:28Z</time>
      </trkpt>
      <trkpt lat="48.64033" lon="-2.48191">
        <ele>51.16</ele>
        <time>2018-06-10T13:57:40Z</time>
      </trkpt>
      <trkpt lat="48.64051" lon="-2.48204">
        <ele>51.08</ele>
        <time>2018-06-10T13:57:56Z</time>
      </trkpt>
      <trkpt lat="48.64067" lon="-2.48217">
        <ele>51.56</ele>
        <time>2018-06-10T13:58:11Z</time>
      </trkpt>
      <trkpt lat="48.64085" lon="-2.48231">
        <ele>51.72</ele>
        <time>2018-06-10T13:58:27Z</time>
      </trkpt>
      <trkpt lat="48.64089" lon="-2.48234">
        <ele>51.7</ele>
        <time>2018-06-10T13:58:31Z</time>
      </trkpt>
      <trkpt lat="48.64104" lon="-2.48243">
        <ele>50.29</ele>
        <time>2018-06-10T13:58:45Z</time>
      </trkpt>
      <trkpt lat="48.64105" lon="-2.48244">
        <ele>50.13</ele>
        <time>2018-06-10T13:58:46Z</time>
      </trkpt>
      <trkpt lat="48.64121" lon="-2.48255">
        <ele>47.38</ele>
        <time>2018-06-10T13:59:01Z</time>
      </trkpt>
      <trkpt lat="48.64137" lon="-2.4827">
        <ele>46.58</ele>
        <time>2018-06-10T13:59:14Z</time>
      </trkpt>
      <trkpt lat="48.64157" lon="-2.48292">
        <ele>46.75</ele>
        <time>2018-06-10T13:59:32Z</time>
      </trkpt>
      <trkpt lat="48.64163" lon="-2.483">
        <ele>47.23</ele>
        <time>2018-06-10T13:59:39Z</time>
      </trkpt>
      <trkpt lat="48.64169" lon="-2.48308">
        <ele>46.98</ele>
        <time>2018-06-10T13:59:45Z</time>
      </trkpt>
      <trkpt lat="48.64183" lon="-2.4833">
        <ele>47.5</ele>
        <time>2018-06-10T14:00:02Z</time>
      </trkpt>
      <trkpt lat="48.64185" lon="-2.48333">
        <ele>47.1</ele>
        <time>2018-06-10T14:00:04Z</time>
      </trkpt>
      <trkpt lat="48.64189" lon="-2.48337">
        <ele>47.12</ele>
        <time>2018-06-10T14:00:08Z</time>
      </trkpt>
      <trkpt lat="48.64198" lon="-2.48349">
        <ele>46.1</ele>
        <time>2018-06-10T14:00:18Z</time>
      </trkpt>
      <trkpt lat="48.64204" lon="-2.48356">
        <ele>45.51</ele>
        <time>2018-06-10T14:00:24Z</time>
      </trkpt>
      <trkpt lat="48.64216" lon="-2.48355">
        <ele>45.11</ele>
        <time>2018-06-10T14:00:35Z</time>
      </trkpt>
      <trkpt lat="48.64231" lon="-2.48349">
        <ele>43.81</ele>
        <time>2018-06-10T14:00:49Z</time>
      </trkpt>
      <trkpt lat="48.64232" lon="-2.48349">
        <ele>43.28</ele>
        <time>2018-06-10T14:01:15Z</time>
      </trkpt>
      <trkpt lat="48.64233" lon="-2.48349">
        <ele>43.5</ele>
        <time>2018-06-10T14:01:38Z</time>
      </trkpt>
      <trkpt lat="48.64232" lon="-2.48348">
        <ele>43.34</ele>
        <time>2018-06-10T14:02:05Z</time>
      </trkpt>
      <trkpt lat="48.64233" lon="-2.48346">
        <ele>43.79</ele>
        <time>2018-06-10T14:02:32Z</time>
      </trkpt>
      <trkpt lat="48.64233" lon="-2.48347">
        <ele>43.58</ele>
        <time>2018-06-10T14:02:57Z</time>
      </trkpt>
      <trkpt lat="48.64232" lon="-2.48348">
        <ele>43.76</ele>
        <time>2018-06-10T14:03:21Z</time>
      </trkpt>
      <trkpt lat="48.64228" lon="-2.48346">
        <ele>44.27</ele>
        <time>2018-06-10T14:03:44Z</time>
      </trkpt>
      <trkpt lat="48.64227" lon="-2.48352">
        <ele>44.17</ele>
        <time>2018-06-10T14:03:50Z</time>
      </trkpt>
      <trkpt lat="48.64226" lon="-2.48356">
        <ele>44.24</ele>
        <time>2018-06-10T14:03:53Z</time>
      </trkpt>
      <trkpt lat="48.64219" lon="-2.48378">
        <ele>44.11</ele>
        <time>2018-06-10T14:04:07Z</time>
      </trkpt>
      <trkpt lat="48.64214" lon="-2.48398">
        <ele>43.35</ele>
        <time>2018-06-10T14:04:26Z</time>
      </trkpt>
      <trkpt lat="48.64209" lon="-2.48416">
        <ele>41.96</ele>
        <time>2018-06-10T14:04:39Z</time>
      </trkpt>
      <trkpt lat="48.64209" lon="-2.48423">
        <ele>41.34</ele>
        <time>2018-06-10T14:04:43Z</time>
      </trkpt>
      <trkpt lat="48.64209" lon="-2.48437">
        <ele>41.45</ele>
        <time>2018-06-10T14:04:51Z</time>
      </trkpt>
      <trkpt lat="48.64208" lon="-2.48443">
        <ele>41.62</ele>
        <time>2018-06-10T14:04:54Z</time>
      </trkpt>
      <trkpt lat="48.64208" lon="-2.4845">
        <ele>41.95</ele>
        <time>2018-06-10T14:04:59Z</time>
      </trkpt>
      <trkpt lat="48.64208" lon="-2.48462">
        <ele>42</ele>
        <time>2018-06-10T14:05:06Z</time>
      </trkpt>
      <trkpt lat="48.64206" lon="-2.48479">
        <ele>41.39</ele>
        <time>2018-06-10T14:05:18Z</time>
      </trkpt>
      <trkpt lat="48.64203" lon="-2.48489">
        <ele>41.28</ele>
        <time>2018-06-10T14:05:26Z</time>
      </trkpt>
      <trkpt lat="48.64203" lon="-2.48506">
        <ele>40.59</ele>
        <time>2018-06-10T14:05:38Z</time>
      </trkpt>
      <trkpt lat="48.64202" lon="-2.4853">
        <ele>42.91</ele>
        <time>2018-06-10T14:05:55Z</time>
      </trkpt>
      <trkpt lat="48.64202" lon="-2.48531">
        <ele>42.77</ele>
        <time>2018-06-10T14:05:56Z</time>
      </trkpt>
      <trkpt lat="48.64203" lon="-2.48533">
        <ele>42.52</ele>
        <time>2018-06-10T14:05:57Z</time>
      </trkpt>
      <trkpt lat="48.64206" lon="-2.48545">
        <ele>41.48</ele>
        <time>2018-06-10T14:06:14Z</time>
      </trkpt>
      <trkpt lat="48.64212" lon="-2.48554">
        <ele>40.17</ele>
        <time>2018-06-10T14:06:24Z</time>
      </trkpt>
      <trkpt lat="48.64215" lon="-2.4856">
        <ele>39.49</ele>
        <time>2018-06-10T14:06:30Z</time>
      </trkpt>
      <trkpt lat="48.64217" lon="-2.48576">
        <ele>37.52</ele>
        <time>2018-06-10T14:06:48Z</time>
      </trkpt>
      <trkpt lat="48.64223" lon="-2.48567">
        <ele>39.12</ele>
        <time>2018-06-10T14:07:04Z</time>
      </trkpt>
      <trkpt lat="48.64225" lon="-2.4855">
        <ele>42.55</ele>
        <time>2018-06-10T14:07:20Z</time>
      </trkpt>
      <trkpt lat="48.64229" lon="-2.48525">
        <ele>42.64</ele>
        <time>2018-06-10T14:07:38Z</time>
      </trkpt>
      <trkpt lat="48.64235" lon="-2.48525">
        <ele>41.76</ele>
        <time>2018-06-10T14:07:48Z</time>
      </trkpt>
      <trkpt lat="48.64245" lon="-2.48543">
        <ele>40.06</ele>
        <time>2018-06-10T14:08:04Z</time>
      </trkpt>
      <trkpt lat="48.64253" lon="-2.48552">
        <ele>38.18</ele>
        <time>2018-06-10T14:08:16Z</time>
      </trkpt>
      <trkpt lat="48.64261" lon="-2.48556">
        <ele>37.2</ele>
        <time>2018-06-10T14:08:25Z</time>
      </trkpt>
      <trkpt lat="48.64264" lon="-2.48559">
        <ele>37.39</ele>
        <time>2018-06-10T14:08:28Z</time>
      </trkpt>
      <trkpt lat="48.64271" lon="-2.48572">
        <ele>37.27</ele>
        <time>2018-06-10T14:08:38Z</time>
      </trkpt>
      <trkpt lat="48.64281" lon="-2.48584">
        <ele>38.45</ele>
        <time>2018-06-10T14:08:55Z</time>
      </trkpt>
      <trkpt lat="48.64293" lon="-2.48591">
        <ele>40.39</ele>
        <time>2018-06-10T14:09:12Z</time>
      </trkpt>
      <trkpt lat="48.643" lon="-2.48591">
        <ele>40.74</ele>
        <time>2018-06-10T14:09:18Z</time>
      </trkpt>
      <trkpt lat="48.64315" lon="-2.48598">
        <ele>41.21</ele>
        <time>2018-06-10T14:09:34Z</time>
      </trkpt>
      <trkpt lat="48.64329" lon="-2.48599">
        <ele>39.64</ele>
        <time>2018-06-10T14:09:50Z</time>
      </trkpt>
      <trkpt lat="48.64335" lon="-2.48596">
        <ele>39.19</ele>
        <time>2018-06-10T14:09:57Z</time>
      </trkpt>
      <trkpt lat="48.64344" lon="-2.48596">
        <ele>37.85</ele>
        <time>2018-06-10T14:10:06Z</time>
      </trkpt>
      <trkpt lat="48.64349" lon="-2.48596">
        <ele>37.08</ele>
        <time>2018-06-10T14:10:10Z</time>
      </trkpt>
      <trkpt lat="48.64363" lon="-2.486">
        <ele>35.89</ele>
        <time>2018-06-10T14:10:29Z</time>
      </trkpt>
      <trkpt lat="48.64363" lon="-2.48604">
        <ele>36.03</ele>
        <time>2018-06-10T14:10:48Z</time>
      </trkpt>
      <trkpt lat="48.64364" lon="-2.48605">
        <ele>36.32</ele>
        <time>2018-06-10T14:11:17Z</time>
      </trkpt>
      <trkpt lat="48.64365" lon="-2.48605">
        <ele>36.47</ele>
        <time>2018-06-10T14:11:43Z</time>
      </trkpt>
      <trkpt lat="48.64364" lon="-2.48602">
        <ele>36.53</ele>
        <time>2018-06-10T14:12:16Z</time>
      </trkpt>
      <trkpt lat="48.64363" lon="-2.48603">
        <ele>36.28</ele>
        <time>2018-06-10T14:12:44Z</time>
      </trkpt>
      <trkpt lat="48.64363" lon="-2.48603">
        <ele>36.36</ele>
        <time>2018-06-10T14:13:05Z</time>
      </trkpt>
      <trkpt lat="48.64362" lon="-2.48604">
        <ele>36.39</ele>
        <time>2018-06-10T14:13:28Z</time>
      </trkpt>
      <trkpt lat="48.64365" lon="-2.48606">
        <ele>36.7</ele>
        <time>2018-06-10T14:13:46Z</time>
      </trkpt>
      <trkpt lat="48.64372" lon="-2.48611">
        <ele>35.34</ele>
        <time>2018-06-10T14:13:54Z</time>
      </trkpt>
      <trkpt lat="48.64375" lon="-2.48616">
        <ele>35.51</ele>
        <time>2018-06-10T14:13:58Z</time>
      </trkpt>
      <trkpt lat="48.64382" lon="-2.48616">
        <ele>35.39</ele>
        <time>2018-06-10T14:14:05Z</time>
      </trkpt>
      <trkpt lat="48.64392" lon="-2.48617">
        <ele>35.38</ele>
        <time>2018-06-10T14:14:15Z</time>
      </trkpt>
      <trkpt lat="48.64395" lon="-2.48615">
        <ele>36.47</ele>
        <time>2018-06-10T14:14:18Z</time>
      </trkpt>
      <trkpt lat="48.64405" lon="-2.48607">
        <ele>39.54</ele>
        <time>2018-06-10T14:14:32Z</time>
      </trkpt>
      <trkpt lat="48.64413" lon="-2.48611">
        <ele>41</ele>
        <time>2018-06-10T14:14:42Z</time>
      </trkpt>
      <trkpt lat="48.64417" lon="-2.48616">
        <ele>41.04</ele>
        <time>2018-06-10T14:14:59Z</time>
      </trkpt>
      <trkpt lat="48.64422" lon="-2.48624">
        <ele>41.86</ele>
        <time>2018-06-10T14:15:26Z</time>
      </trkpt>
      <trkpt lat="48.64428" lon="-2.48631">
        <ele>42.86</ele>
        <time>2018-06-10T14:15:45Z</time>
      </trkpt>
      <trkpt lat="48.64434" lon="-2.48638">
        <ele>42.59</ele>
        <time>2018-06-10T14:15:53Z</time>
      </trkpt>
      <trkpt lat="48.64444" lon="-2.48639">
        <ele>42.7</ele>
        <time>2018-06-10T14:16:05Z</time>
      </trkpt>
      <trkpt lat="48.6445" lon="-2.48633">
        <ele>42.67</ele>
        <time>2018-06-10T14:16:11Z</time>
      </trkpt>
      <trkpt lat="48.64452" lon="-2.48627">
        <ele>43.1</ele>
        <time>2018-06-10T14:16:15Z</time>
      </trkpt>
      <trkpt lat="48.6446" lon="-2.48619">
        <ele>44.26</ele>
        <time>2018-06-10T14:16:28Z</time>
      </trkpt>
      <trkpt lat="48.64464" lon="-2.48617">
        <ele>44.98</ele>
        <time>2018-06-10T14:16:32Z</time>
      </trkpt>
      <trkpt lat="48.64466" lon="-2.48617">
        <ele>44.95</ele>
        <time>2018-06-10T14:16:34Z</time>
      </trkpt>
      <trkpt lat="48.64475" lon="-2.48612">
        <ele>46.05</ele>
        <time>2018-06-10T14:16:49Z</time>
      </trkpt>
      <trkpt lat="48.64483" lon="-2.48608">
        <ele>46.61</ele>
        <time>2018-06-10T14:17:07Z</time>
      </trkpt>
      <trkpt lat="48.64489" lon="-2.48596">
        <ele>44.71</ele>
        <time>2018-06-10T14:17:22Z</time>
      </trkpt>
      <trkpt lat="48.64492" lon="-2.48579">
        <ele>44.55</ele>
        <time>2018-06-10T14:17:36Z</time>
      </trkpt>
      <trkpt lat="48.64494" lon="-2.48553">
        <ele>42.81</ele>
        <time>2018-06-10T14:17:53Z</time>
      </trkpt>
      <trkpt lat="48.64495" lon="-2.48547">
        <ele>43.02</ele>
        <time>2018-06-10T14:17:56Z</time>
      </trkpt>
      <trkpt lat="48.64497" lon="-2.48528">
        <ele>43.75</ele>
        <time>2018-06-10T14:18:08Z</time>
      </trkpt>
      <trkpt lat="48.64496" lon="-2.48523">
        <ele>43.85</ele>
        <time>2018-06-10T14:18:11Z</time>
      </trkpt>
      <trkpt lat="48.64493" lon="-2.48502">
        <ele>44.39</ele>
        <time>2018-06-10T14:18:26Z</time>
      </trkpt>
      <trkpt lat="48.64482" lon="-2.48483">
        <ele>44.04</ele>
        <time>2018-06-10T14:18:43Z</time>
      </trkpt>
      <trkpt lat="48.64472" lon="-2.48466">
        <ele>44.97</ele>
        <time>2018-06-10T14:18:56Z</time>
      </trkpt>
      <trkpt lat="48.64467" lon="-2.48447">
        <ele>45.14</ele>
        <time>2018-06-10T14:19:10Z</time>
      </trkpt>
      <trkpt lat="48.64465" lon="-2.48425">
        <ele>46.77</ele>
        <time>2018-06-10T14:19:25Z</time>
      </trkpt>
      <trkpt lat="48.64465" lon="-2.48421">
        <ele>47.12</ele>
        <time>2018-06-10T14:19:27Z</time>
      </trkpt>
      <trkpt lat="48.64465" lon="-2.48416">
        <ele>46.99</ele>
        <time>2018-06-10T14:19:30Z</time>
      </trkpt>
      <trkpt lat="48.64463" lon="-2.48391">
        <ele>47.87</ele>
        <time>2018-06-10T14:19:47Z</time>
      </trkpt>
      <trkpt lat="48.64455" lon="-2.48376">
        <ele>47.45</ele>
        <time>2018-06-10T14:20:01Z</time>
      </trkpt>
      <trkpt lat="48.6445" lon="-2.4836">
        <ele>45.36</ele>
        <time>2018-06-10T14:20:18Z</time>
      </trkpt>
      <trkpt lat="48.64445" lon="-2.48345">
        <ele>44.04</ele>
        <time>2018-06-10T14:20:29Z</time>
      </trkpt>
      <trkpt lat="48.64443" lon="-2.48335">
        <ele>43.61</ele>
        <time>2018-06-10T14:20:37Z</time>
      </trkpt>
      <trkpt lat="48.64442" lon="-2.4833">
        <ele>42.83</ele>
        <time>2018-06-10T14:20:40Z</time>
      </trkpt>
      <trkpt lat="48.64437" lon="-2.48319">
        <ele>42.52</ele>
        <time>2018-06-10T14:20:47Z</time>
      </trkpt>
      <trkpt lat="48.64424" lon="-2.48291">
        <ele>41.43</ele>
        <time>2018-06-10T14:21:04Z</time>
      </trkpt>
      <trkpt lat="48.6442" lon="-2.48262">
        <ele>41.75</ele>
        <time>2018-06-10T14:21:20Z</time>
      </trkpt>
      <trkpt lat="48.64419" lon="-2.48261">
        <ele>41.47</ele>
        <time>2018-06-10T14:21:21Z</time>
      </trkpt>
      <trkpt lat="48.6441" lon="-2.48257">
        <ele>42.2</ele>
        <time>2018-06-10T14:21:31Z</time>
      </trkpt>
      <trkpt lat="48.644" lon="-2.48253">
        <ele>42.56</ele>
        <time>2018-06-10T14:21:40Z</time>
      </trkpt>
      <trkpt lat="48.64384" lon="-2.48251">
        <ele>41.66</ele>
        <time>2018-06-10T14:21:59Z</time>
      </trkpt>
      <trkpt lat="48.64379" lon="-2.48242">
        <ele>40.61</ele>
        <time>2018-06-10T14:22:16Z</time>
      </trkpt>
      <trkpt lat="48.64371" lon="-2.48241">
        <ele>40.28</ele>
        <time>2018-06-10T14:22:32Z</time>
      </trkpt>
      <trkpt lat="48.64362" lon="-2.48238">
        <ele>39.88</ele>
        <time>2018-06-10T14:22:53Z</time>
      </trkpt>
      <trkpt lat="48.64362" lon="-2.48232">
        <ele>36.75</ele>
        <time>2018-06-10T14:23:06Z</time>
      </trkpt>
      <trkpt lat="48.64358" lon="-2.48223">
        <ele>33.42</ele>
        <time>2018-06-10T14:23:20Z</time>
      </trkpt>
      <trkpt lat="48.64356" lon="-2.48213">
        <ele>31.52</ele>
        <time>2018-06-10T14:23:30Z</time>
      </trkpt>
      <trkpt lat="48.64355" lon="-2.48208">
        <ele>30.75</ele>
        <time>2018-06-10T14:23:33Z</time>
      </trkpt>
      <trkpt lat="48.6435" lon="-2.4819">
        <ele>33.31</ele>
        <time>2018-06-10T14:23:48Z</time>
      </trkpt>
      <trkpt lat="48.64349" lon="-2.48181">
        <ele>36.12</ele>
        <time>2018-06-10T14:24:01Z</time>
      </trkpt>
      <trkpt lat="48.64353" lon="-2.48172">
        <ele>37.71</ele>
        <time>2018-06-10T14:24:12Z</time>
      </trkpt>
      <trkpt lat="48.64364" lon="-2.48163">
        <ele>39.05</ele>
        <time>2018-06-10T14:24:28Z</time>
      </trkpt>
      <trkpt lat="48.64372" lon="-2.4815">
        <ele>40.82</ele>
        <time>2018-06-10T14:24:44Z</time>
      </trkpt>
      <trkpt lat="48.64373" lon="-2.48148">
        <ele>41.6</ele>
        <time>2018-06-10T14:24:45Z</time>
      </trkpt>
      <trkpt lat="48.64375" lon="-2.48122">
        <ele>41.4</ele>
        <time>2018-06-10T14:25:01Z</time>
      </trkpt>
      <trkpt lat="48.64372" lon="-2.48095">
        <ele>42.54</ele>
        <time>2018-06-10T14:25:17Z</time>
      </trkpt>
      <trkpt lat="48.64368" lon="-2.48069">
        <ele>43.96</ele>
        <time>2018-06-10T14:25:36Z</time>
      </trkpt>
      <trkpt lat="48.64368" lon="-2.48068">
        <ele>43.91</ele>
        <time>2018-06-10T14:25:37Z</time>
      </trkpt>
      <trkpt lat="48.64368" lon="-2.48035">
        <ele>44.57</ele>
        <time>2018-06-10T14:25:57Z</time>
      </trkpt>
      <trkpt lat="48.64369" lon="-2.48016">
        <ele>44.67</ele>
        <time>2018-06-10T14:26:09Z</time>
      </trkpt>
      <trkpt lat="48.64371" lon="-2.47994">
        <ele>45.85</ele>
        <time>2018-06-10T14:26:25Z</time>
      </trkpt>
      <trkpt lat="48.64378" lon="-2.47975">
        <ele>47.71</ele>
        <time>2018-06-10T14:26:40Z</time>
      </trkpt>
      <trkpt lat="48.64383" lon="-2.47958">
        <ele>49.18</ele>
        <time>2018-06-10T14:26:58Z</time>
      </trkpt>
      <trkpt lat="48.64386" lon="-2.47949">
        <ele>51.66</ele>
        <time>2018-06-10T14:27:10Z</time>
      </trkpt>
      <trkpt lat="48.64386" lon="-2.47935">
        <ele>51.6</ele>
        <time>2018-06-10T14:27:23Z</time>
      </trkpt>
      <trkpt lat="48.64384" lon="-2.47916">
        <ele>51.55</ele>
        <time>2018-06-10T14:27:37Z</time>
      </trkpt>
      <trkpt lat="48.64382" lon="-2.47885">
        <ele>50.48</ele>
        <time>2018-06-10T14:27:54Z</time>
      </trkpt>
      <trkpt lat="48.6438" lon="-2.4786">
        <ele>49.94</ele>
        <time>2018-06-10T14:28:09Z</time>
      </trkpt>
      <trkpt lat="48.64381" lon="-2.47836">
        <ele>49.56</ele>
        <time>2018-06-10T14:28:23Z</time>
      </trkpt>
      <trkpt lat="48.6438" lon="-2.47833">
        <ele>49.64</ele>
        <time>2018-06-10T14:28:25Z</time>
      </trkpt>
      <trkpt lat="48.64376" lon="-2.47808">
        <ele>51.32</ele>
        <time>2018-06-10T14:28:42Z</time>
      </trkpt>
      <trkpt lat="48.64375" lon="-2.47802">
        <ele>51.47</ele>
        <time>2018-06-10T14:28:47Z</time>
      </trkpt>
      <trkpt lat="48.64374" lon="-2.47786">
        <ele>51.96</ele>
        <time>2018-06-10T14:29:05Z</time>
      </trkpt>
      <trkpt lat="48.64374" lon="-2.4778">
        <ele>51.72</ele>
        <time>2018-06-10T14:29:23Z</time>
      </trkpt>
      <trkpt lat="48.64374" lon="-2.47777">
        <ele>51.74</ele>
        <time>2018-06-10T14:29:44Z</time>
      </trkpt>
      <trkpt lat="48.6437" lon="-2.47766">
        <ele>50.75</ele>
        <time>2018-06-10T14:30:08Z</time>
      </trkpt>
      <trkpt lat="48.64369" lon="-2.47764">
        <ele>50.85</ele>
        <time>2018-06-10T14:30:09Z</time>
      </trkpt>
      <trkpt lat="48.64359" lon="-2.47743">
        <ele>50.81</ele>
        <time>2018-06-10T14:30:26Z</time>
      </trkpt>
      <trkpt lat="48.64354" lon="-2.47731">
        <ele>51.7</ele>
        <time>2018-06-10T14:30:36Z</time>
      </trkpt>
      <trkpt lat="48.64351" lon="-2.47698">
        <ele>51.04</ele>
        <time>2018-06-10T14:30:55Z</time>
      </trkpt>
      <trkpt lat="48.64349" lon="-2.47672">
        <ele>50.22</ele>
        <time>2018-06-10T14:31:12Z</time>
      </trkpt>
      <trkpt lat="48.64349" lon="-2.47659">
        <ele>49.82</ele>
        <time>2018-06-10T14:31:26Z</time>
      </trkpt>
      <trkpt lat="48.6435" lon="-2.47651">
        <ele>49.37</ele>
        <time>2018-06-10T14:31:31Z</time>
      </trkpt>
      <trkpt lat="48.64351" lon="-2.47643">
        <ele>49.36</ele>
        <time>2018-06-10T14:31:35Z</time>
      </trkpt>
      <trkpt lat="48.64351" lon="-2.47634">
        <ele>49.09</ele>
        <time>2018-06-10T14:31:40Z</time>
      </trkpt>
      <trkpt lat="48.64352" lon="-2.47626">
        <ele>48.93</ele>
        <time>2018-06-10T14:31:44Z</time>
      </trkpt>
      <trkpt lat="48.64352" lon="-2.47617">
        <ele>48.73</ele>
        <time>2018-06-10T14:31:50Z</time>
      </trkpt>
      <trkpt lat="48.64342" lon="-2.47604">
        <ele>47.66</ele>
        <time>2018-06-10T14:32:04Z</time>
      </trkpt>
      <trkpt lat="48.64334" lon="-2.47597">
        <ele>46.59</ele>
        <time>2018-06-10T14:32:13Z</time>
      </trkpt>
      <trkpt lat="48.64324" lon="-2.47595">
        <ele>47.07</ele>
        <time>2018-06-10T14:32:22Z</time>
      </trkpt>
      <trkpt lat="48.64318" lon="-2.47606">
        <ele>48.16</ele>
        <time>2018-06-10T14:32:36Z</time>
      </trkpt>
      <trkpt lat="48.64315" lon="-2.47624">
        <ele>50.03</ele>
        <time>2018-06-10T14:32:51Z</time>
      </trkpt>
      <trkpt lat="48.64316" lon="-2.47633">
        <ele>49.79</ele>
        <time>2018-06-10T14:32:58Z</time>
      </trkpt>
      <trkpt lat="48.64308" lon="-2.4764">
        <ele>48.49</ele>
        <time>2018-06-10T14:33:13Z</time>
      </trkpt>
      <trkpt lat="48.64299" lon="-2.47646">
        <ele>46.91</ele>
        <time>2018-06-10T14:33:29Z</time>
      </trkpt>
      <trkpt lat="48.64299" lon="-2.47645">
        <ele>46.7</ele>
        <time>2018-06-10T14:33:30Z</time>
      </trkpt>
      <trkpt lat="48.64296" lon="-2.47642">
        <ele>46.46</ele>
        <time>2018-06-10T14:33:33Z</time>
      </trkpt>
      <trkpt lat="48.64291" lon="-2.47631">
        <ele>43.82</ele>
        <time>2018-06-10T14:33:52Z</time>
      </trkpt>
      <trkpt lat="48.64287" lon="-2.47624">
        <ele>40.69</ele>
        <time>2018-06-10T14:34:13Z</time>
      </trkpt>
      <trkpt lat="48.64281" lon="-2.47614">
        <ele>37.49</ele>
        <time>2018-06-10T14:34:30Z</time>
      </trkpt>
      <trkpt lat="48.64274" lon="-2.47604">
        <ele>34.41</ele>
        <time>2018-06-10T14:34:49Z</time>
      </trkpt>
      <trkpt lat="48.64271" lon="-2.47594">
        <ele>33.35</ele>
        <time>2018-06-10T14:35:09Z</time>
      </trkpt>
      <trkpt lat="48.64271" lon="-2.47594">
        <ele>33.97</ele>
        <time>2018-06-10T14:35:35Z</time>
      </trkpt>
      <trkpt lat="48.64273" lon="-2.47595">
        <ele>33.92</ele>
        <time>2018-06-10T14:35:58Z</time>
      </trkpt>
      <trkpt lat="48.64276" lon="-2.47591">
        <ele>34.22</ele>
        <time>2018-06-10T14:36:23Z</time>
      </trkpt>
      <trkpt lat="48.64274" lon="-2.47595">
        <ele>33.54</ele>
        <time>2018-06-10T14:36:49Z</time>
      </trkpt>
      <trkpt lat="48.64273" lon="-2.47594">
        <ele>33.81</ele>
        <time>2018-06-10T14:37:14Z</time>
      </trkpt>
      <trkpt lat="48.64272" lon="-2.47593">
        <ele>32.8</ele>
        <time>2018-06-10T14:37:42Z</time>
      </trkpt>
      <trkpt lat="48.64269" lon="-2.47594">
        <ele>34.08</ele>
        <time>2018-06-10T14:37:47Z</time>
      </trkpt>
      <trkpt lat="48.64265" lon="-2.47595">
        <ele>34.92</ele>
        <time>2018-06-10T14:37:52Z</time>
      </trkpt>
      <trkpt lat="48.64258" lon="-2.47597">
        <ele>34.52</ele>
        <time>2018-06-10T14:37:57Z</time>
      </trkpt>
      <trkpt lat="48.64246" lon="-2.476">
        <ele>35.13</ele>
        <time>2018-06-10T14:38:08Z</time>
      </trkpt>
      <trkpt lat="48.64241" lon="-2.47586">
        <ele>33.75</ele>
        <time>2018-06-10T14:38:23Z</time>
      </trkpt>
      <trkpt lat="48.6424" lon="-2.47582">
        <ele>34.03</ele>
        <time>2018-06-10T14:38:42Z</time>
      </trkpt>
      <trkpt lat="48.64239" lon="-2.47582">
        <ele>34.49</ele>
        <time>2018-06-10T14:39:07Z</time>
      </trkpt>
      <trkpt lat="48.64237" lon="-2.47596">
        <ele>35.26</ele>
        <time>2018-06-10T14:39:22Z</time>
      </trkpt>
      <trkpt lat="48.64237" lon="-2.47598">
        <ele>35.58</ele>
        <time>2018-06-10T14:39:37Z</time>
      </trkpt>
      <trkpt lat="48.64238" lon="-2.476">
        <ele>35.26</ele>
        <time>2018-06-10T14:39:56Z</time>
      </trkpt>
      <trkpt lat="48.64237" lon="-2.47601">
        <ele>34.96</ele>
        <time>2018-06-10T14:40:19Z</time>
      </trkpt>
      <trkpt lat="48.64227" lon="-2.47603">
        <ele>36.83</ele>
        <time>2018-06-10T14:40:36Z</time>
      </trkpt>
      <trkpt lat="48.64215" lon="-2.47603">
        <ele>37.82</ele>
        <time>2018-06-10T14:40:51Z</time>
      </trkpt>
      <trkpt lat="48.64214" lon="-2.47603">
        <ele>37.48</ele>
        <time>2018-06-10T14:40:52Z</time>
      </trkpt>
      <trkpt lat="48.64208" lon="-2.47603">
        <ele>38.33</ele>
        <time>2018-06-10T14:40:57Z</time>
      </trkpt>
      <trkpt lat="48.64191" lon="-2.47592">
        <ele>40.25</ele>
        <time>2018-06-10T14:41:14Z</time>
      </trkpt>
      <trkpt lat="48.64191" lon="-2.47591">
        <ele>40.29</ele>
        <time>2018-06-10T14:41:15Z</time>
      </trkpt>
      <trkpt lat="48.64187" lon="-2.47583">
        <ele>40.32</ele>
        <time>2018-06-10T14:41:20Z</time>
      </trkpt>
      <trkpt lat="48.64173" lon="-2.47556">
        <ele>42.1</ele>
        <time>2018-06-10T14:41:37Z</time>
      </trkpt>
      <trkpt lat="48.64167" lon="-2.47547">
        <ele>43.14</ele>
        <time>2018-06-10T14:41:46Z</time>
      </trkpt>
      <trkpt lat="48.64165" lon="-2.47539">
        <ele>43.77</ele>
        <time>2018-06-10T14:41:52Z</time>
      </trkpt>
      <trkpt lat="48.64165" lon="-2.47506">
        <ele>46.01</ele>
        <time>2018-06-10T14:42:10Z</time>
      </trkpt>
      <trkpt lat="48.64171" lon="-2.47479">
        <ele>47.95</ele>
        <time>2018-06-10T14:42:25Z</time>
      </trkpt>
      <trkpt lat="48.64173" lon="-2.47475">
        <ele>48.19</ele>
        <time>2018-06-10T14:42:28Z</time>
      </trkpt>
      <trkpt lat="48.64177" lon="-2.47452">
        <ele>49.52</ele>
        <time>2018-06-10T14:42:41Z</time>
      </trkpt>
      <trkpt lat="48.64177" lon="-2.47442">
        <ele>50.29</ele>
        <time>2018-06-10T14:42:47Z</time>
      </trkpt>
      <trkpt lat="48.64174" lon="-2.47421">
        <ele>51.68</ele>
        <time>2018-06-10T14:43:02Z</time>
      </trkpt>
      <trkpt lat="48.64176" lon="-2.47393">
        <ele>51.76</ele>
        <time>2018-06-10T14:43:18Z</time>
      </trkpt>
      <trkpt lat="48.64178" lon="-2.47391">
        <ele>52</ele>
        <time>2018-06-10T14:43:20Z</time>
      </trkpt>
      <trkpt lat="48.64194" lon="-2.4739">
        <ele>51.15</ele>
        <time>2018-06-10T14:43:37Z</time>
      </trkpt>
      <trkpt lat="48.64196" lon="-2.4739">
        <ele>51.62</ele>
        <time>2018-06-10T14:43:40Z</time>
      </trkpt>
      <trkpt lat="48.64213" lon="-2.47394">
        <ele>50.8</ele>
        <time>2018-06-10T14:43:59Z</time>
      </trkpt>
      <trkpt lat="48.64225" lon="-2.47395">
        <ele>52.37</ele>
        <time>2018-06-10T14:44:13Z</time>
      </trkpt>
      <trkpt lat="48.64241" lon="-2.474">
        <ele>52.36</ele>
        <time>2018-06-10T14:44:27Z</time>
      </trkpt>
      <trkpt lat="48.64244" lon="-2.474">
        <ele>52.2</ele>
        <time>2018-06-10T14:44:30Z</time>
      </trkpt>
      <trkpt lat="48.64248" lon="-2.47401">
        <ele>52.57</ele>
        <time>2018-06-10T14:44:34Z</time>
      </trkpt>
      <trkpt lat="48.64264" lon="-2.47403">
        <ele>52.94</ele>
        <time>2018-06-10T14:44:49Z</time>
      </trkpt>
      <trkpt lat="48.6428" lon="-2.474">
        <ele>52.15</ele>
        <time>2018-06-10T14:45:04Z</time>
      </trkpt>
      <trkpt lat="48.6429" lon="-2.474">
        <ele>52.21</ele>
        <time>2018-06-10T14:45:17Z</time>
      </trkpt>
      <trkpt lat="48.64293" lon="-2.47401">
        <ele>51.92</ele>
        <time>2018-06-10T14:45:20Z</time>
      </trkpt>
      <trkpt lat="48.64313" lon="-2.47405">
        <ele>49.7</ele>
        <time>2018-06-10T14:45:38Z</time>
      </trkpt>
      <trkpt lat="48.64329" lon="-2.4741">
        <ele>48.15</ele>
        <time>2018-06-10T14:45:53Z</time>
      </trkpt>
      <trkpt lat="48.64345" lon="-2.47413">
        <ele>45.15</ele>
        <time>2018-06-10T14:46:11Z</time>
      </trkpt>
      <trkpt lat="48.64359" lon="-2.47411">
        <ele>43.13</ele>
        <time>2018-06-10T14:46:28Z</time>
      </trkpt>
      <trkpt lat="48.64364" lon="-2.47407">
        <ele>42.57</ele>
        <time>2018-06-10T14:46:34Z</time>
      </trkpt>
      <trkpt lat="48.64381" lon="-2.47386">
        <ele>41.65</ele>
        <time>2018-06-10T14:46:56Z</time>
      </trkpt>
      <trkpt lat="48.64382" lon="-2.47384">
        <ele>41.05</ele>
        <time>2018-06-10T14:46:57Z</time>
      </trkpt>
      <trkpt lat="48.64386" lon="-2.47376">
        <ele>41.54</ele>
        <time>2018-06-10T14:47:04Z</time>
      </trkpt>
      <trkpt lat="48.6439" lon="-2.47366">
        <ele>41.94</ele>
        <time>2018-06-10T14:47:11Z</time>
      </trkpt>
      <trkpt lat="48.64401" lon="-2.47347">
        <ele>41.42</ele>
        <time>2018-06-10T14:47:28Z</time>
      </trkpt>
      <trkpt lat="48.64408" lon="-2.47336">
        <ele>40.52</ele>
        <time>2018-06-10T14:47:39Z</time>
      </trkpt>
      <trkpt lat="48.64416" lon="-2.47326">
        <ele>39.94</ele>
        <time>2018-06-10T14:47:50Z</time>
      </trkpt>
      <trkpt lat="48.64421" lon="-2.47322">
        <ele>40.07</ele>
        <time>2018-06-10T14:47:55Z</time>
      </trkpt>
      <trkpt lat="48.64438" lon="-2.47302">
        <ele>39.69</ele>
        <time>2018-06-10T14:48:11Z</time>
      </trkpt>
      <trkpt lat="48.64445" lon="-2.47279">
        <ele>39.19</ele>
        <time>2018-06-10T14:48:27Z</time>
      </trkpt>
      <trkpt lat="48.64454" lon="-2.47261">
        <ele>39.88</ele>
        <time>2018-06-10T14:48:41Z</time>
      </trkpt>
      <trkpt lat="48.64456" lon="-2.47257">
        <ele>39.92</ele>
        <time>2018-06-10T14:48:46Z</time>
      </trkpt>
      <trkpt lat="48.64459" lon="-2.47251">
        <ele>39.68</ele>
        <time>2018-06-10T14:49:01Z</time>
      </trkpt>
      <trkpt lat="48.6446" lon="-2.47245">
        <ele>39.64</ele>
        <time>2018-06-10T14:49:23Z</time>
      </trkpt>
      <trkpt lat="48.64462" lon="-2.47234">
        <ele>40.48</ele>
        <time>2018-06-10T14:49:35Z</time>
      </trkpt>
      <trkpt lat="48.64465" lon="-2.47227">
        <ele>41.1</ele>
        <time>2018-06-10T14:49:41Z</time>
      </trkpt>
      <trkpt lat="48.64478" lon="-2.47211">
        <ele>42.11</ele>
        <time>2018-06-10T14:50:00Z</time>
      </trkpt>
      <trkpt lat="48.64484" lon="-2.47204">
        <ele>42.19</ele>
        <time>2018-06-10T14:50:07Z</time>
      </trkpt>
      <trkpt lat="48.64494" lon="-2.47189">
        <ele>41.88</ele>
        <time>2018-06-10T14:50:23Z</time>
      </trkpt>
      <trkpt lat="48.645" lon="-2.47182">
        <ele>41.24</ele>
        <time>2018-06-10T14:50:31Z</time>
      </trkpt>
      <trkpt lat="48.64512" lon="-2.47175">
        <ele>41.12</ele>
        <time>2018-06-10T14:50:42Z</time>
      </trkpt>
      <trkpt lat="48.64533" lon="-2.47178">
        <ele>40.32</ele>
        <time>2018-06-10T14:51:00Z</time>
      </trkpt>
      <trkpt lat="48.64544" lon="-2.47185">
        <ele>39.77</ele>
        <time>2018-06-10T14:51:16Z</time>
      </trkpt>
      <trkpt lat="48.64547" lon="-2.47184">
        <ele>39.94</ele>
        <time>2018-06-10T14:51:20Z</time>
      </trkpt>
      <trkpt lat="48.64556" lon="-2.4717">
        <ele>39.76</ele>
        <time>2018-06-10T14:51:33Z</time>
      </trkpt>
      <trkpt lat="48.64562" lon="-2.47166">
        <ele>39.76</ele>
        <time>2018-06-10T14:51:38Z</time>
      </trkpt>
      <trkpt lat="48.64566" lon="-2.47159">
        <ele>39.06</ele>
        <time>2018-06-10T14:51:43Z</time>
      </trkpt>
      <trkpt lat="48.64575" lon="-2.4714">
        <ele>38.53</ele>
        <time>2018-06-10T14:52:00Z</time>
      </trkpt>
      <trkpt lat="48.64576" lon="-2.47137">
        <ele>38.87</ele>
        <time>2018-06-10T14:52:02Z</time>
      </trkpt>
      <trkpt lat="48.64579" lon="-2.47129">
        <ele>39.28</ele>
        <time>2018-06-10T14:52:07Z</time>
      </trkpt>
      <trkpt lat="48.64594" lon="-2.47103">
        <ele>39.44</ele>
        <time>2018-06-10T14:52:26Z</time>
      </trkpt>
      <trkpt lat="48.64604" lon="-2.47084">
        <ele>39.38</ele>
        <time>2018-06-10T14:52:40Z</time>
      </trkpt>
      <trkpt lat="48.64619" lon="-2.47067">
        <ele>40.19</ele>
        <time>2018-06-10T14:52:55Z</time>
      </trkpt>
      <trkpt lat="48.64623" lon="-2.47061">
        <ele>40.33</ele>
        <time>2018-06-10T14:53:00Z</time>
      </trkpt>
      <trkpt lat="48.6464" lon="-2.47045">
        <ele>40.19</ele>
        <time>2018-06-10T14:53:17Z</time>
      </trkpt>
      <trkpt lat="48.64654" lon="-2.47036">
        <ele>39.72</ele>
        <time>2018-06-10T14:53:32Z</time>
      </trkpt>
      <trkpt lat="48.64659" lon="-2.47034">
        <ele>40.44</ele>
        <time>2018-06-10T14:53:36Z</time>
      </trkpt>
      <trkpt lat="48.64665" lon="-2.47032">
        <ele>40.27</ele>
        <time>2018-06-10T14:53:41Z</time>
      </trkpt>
      <trkpt lat="48.64683" lon="-2.47024">
        <ele>39.07</ele>
        <time>2018-06-10T14:53:57Z</time>
      </trkpt>
      <trkpt lat="48.647" lon="-2.47014">
        <ele>37.94</ele>
        <time>2018-06-10T14:54:14Z</time>
      </trkpt>
      <trkpt lat="48.64716" lon="-2.47002">
        <ele>38.35</ele>
        <time>2018-06-10T14:54:29Z</time>
      </trkpt>
      <trkpt lat="48.64728" lon="-2.46987">
        <ele>38.25</ele>
        <time>2018-06-10T14:54:44Z</time>
      </trkpt>
      <trkpt lat="48.64742" lon="-2.4698">
        <ele>39.12</ele>
        <time>2018-06-10T14:55:00Z</time>
      </trkpt>
      <trkpt lat="48.64746" lon="-2.46979">
        <ele>39.45</ele>
        <time>2018-06-10T14:55:04Z</time>
      </trkpt>
      <trkpt lat="48.64756" lon="-2.46977">
        <ele>40.36</ele>
        <time>2018-06-10T14:55:13Z</time>
      </trkpt>
      <trkpt lat="48.64771" lon="-2.46973">
        <ele>39.53</ele>
        <time>2018-06-10T14:55:29Z</time>
      </trkpt>
      <trkpt lat="48.64777" lon="-2.46971">
        <ele>39.79</ele>
        <time>2018-06-10T14:55:43Z</time>
      </trkpt>
      <trkpt lat="48.64783" lon="-2.46968">
        <ele>39.72</ele>
        <time>2018-06-10T14:55:49Z</time>
      </trkpt>
      <trkpt lat="48.64797" lon="-2.46958">
        <ele>41.22</ele>
        <time>2018-06-10T14:56:03Z</time>
      </trkpt>
      <trkpt lat="48.64808" lon="-2.46939">
        <ele>41.76</ele>
        <time>2018-06-10T14:56:21Z</time>
      </trkpt>
      <trkpt lat="48.64819" lon="-2.46924">
        <ele>42.52</ele>
        <time>2018-06-10T14:56:36Z</time>
      </trkpt>
      <trkpt lat="48.64826" lon="-2.46899">
        <ele>42.6</ele>
        <time>2018-06-10T14:56:53Z</time>
      </trkpt>
      <trkpt lat="48.64825" lon="-2.4687">
        <ele>42.46</ele>
        <time>2018-06-10T14:57:09Z</time>
      </trkpt>
      <trkpt lat="48.64826" lon="-2.46837">
        <ele>42.87</ele>
        <time>2018-06-10T14:57:30Z</time>
      </trkpt>
      <trkpt lat="48.64827" lon="-2.4682">
        <ele>41.28</ele>
        <time>2018-06-10T14:57:40Z</time>
      </trkpt>
      <trkpt lat="48.64829" lon="-2.46797">
        <ele>40.92</ele>
        <time>2018-06-10T14:57:54Z</time>
      </trkpt>
      <trkpt lat="48.64829" lon="-2.46796">
        <ele>40.46</ele>
        <time>2018-06-10T14:57:55Z</time>
      </trkpt>
      <trkpt lat="48.6483" lon="-2.46789">
        <ele>40.74</ele>
        <time>2018-06-10T14:57:59Z</time>
      </trkpt>
      <trkpt lat="48.64836" lon="-2.46774">
        <ele>40.01</ele>
        <time>2018-06-10T14:58:12Z</time>
      </trkpt>
      <trkpt lat="48.6485" lon="-2.46768">
        <ele>39.05</ele>
        <time>2018-06-10T14:58:26Z</time>
      </trkpt>
      <trkpt lat="48.64866" lon="-2.46762">
        <ele>39.24</ele>
        <time>2018-06-10T14:58:39Z</time>
      </trkpt>
      <trkpt lat="48.64886" lon="-2.46762">
        <ele>39.21</ele>
        <time>2018-06-10T14:58:56Z</time>
      </trkpt>
      <trkpt lat="48.64898" lon="-2.46765">
        <ele>38.29</ele>
        <time>2018-06-10T14:59:11Z</time>
      </trkpt>
      <trkpt lat="48.64899" lon="-2.46765">
        <ele>38.57</ele>
        <time>2018-06-10T14:59:12Z</time>
      </trkpt>
      <trkpt lat="48.64911" lon="-2.4676">
        <ele>37.06</ele>
        <time>2018-06-10T14:59:27Z</time>
      </trkpt>
      <trkpt lat="48.64923" lon="-2.46753">
        <ele>35.75</ele>
        <time>2018-06-10T14:59:42Z</time>
      </trkpt>
      <trkpt lat="48.64925" lon="-2.46753">
        <ele>36</ele>
        <time>2018-06-10T14:59:43Z</time>
      </trkpt>
      <trkpt lat="48.64928" lon="-2.46749">
        <ele>35.55</ele>
        <time>2018-06-10T14:59:47Z</time>
      </trkpt>
      <trkpt lat="48.64939" lon="-2.46742">
        <ele>34.55</ele>
        <time>2018-06-10T15:00:00Z</time>
      </trkpt>
      <trkpt lat="48.64946" lon="-2.4674">
        <ele>34.19</ele>
        <time>2018-06-10T15:00:07Z</time>
      </trkpt>
      <trkpt lat="48.64947" lon="-2.46736">
        <ele>33.98</ele>
        <time>2018-06-10T15:00:11Z</time>
      </trkpt>
      <trkpt lat="48.6494" lon="-2.46729">
        <ele>34.73</ele>
        <time>2018-06-10T15:00:21Z</time>
      </trkpt>
      <trkpt lat="48.64938" lon="-2.46727">
        <ele>35.16</ele>
        <time>2018-06-10T15:00:23Z</time>
      </trkpt>
      <trkpt lat="48.64924" lon="-2.4672">
        <ele>36.52</ele>
        <time>2018-06-10T15:00:38Z</time>
      </trkpt>
      <trkpt lat="48.64918" lon="-2.46712">
        <ele>37.16</ele>
        <time>2018-06-10T15:00:45Z</time>
      </trkpt>
      <trkpt lat="48.64912" lon="-2.46689">
        <ele>37.04</ele>
        <time>2018-06-10T15:01:00Z</time>
      </trkpt>
      <trkpt lat="48.64912" lon="-2.46687">
        <ele>36.69</ele>
        <time>2018-06-10T15:01:01Z</time>
      </trkpt>
      <trkpt lat="48.64902" lon="-2.46659">
        <ele>36.27</ele>
        <time>2018-06-10T15:01:18Z</time>
      </trkpt>
      <trkpt lat="48.64887" lon="-2.4663">
        <ele>36.51</ele>
        <time>2018-06-10T15:01:38Z</time>
      </trkpt>
      <trkpt lat="48.64884" lon="-2.46624">
        <ele>37.39</ele>
        <time>2018-06-10T15:01:44Z</time>
      </trkpt>
      <trkpt lat="48.6488" lon="-2.46607">
        <ele>38.29</ele>
        <time>2018-06-10T15:01:58Z</time>
      </trkpt>
      <trkpt lat="48.64879" lon="-2.46598">
        <ele>38.28</ele>
        <time>2018-06-10T15:02:04Z</time>
      </trkpt>
      <trkpt lat="48.6488" lon="-2.46574">
        <ele>38.99</ele>
        <time>2018-06-10T15:02:19Z</time>
      </trkpt>
      <trkpt lat="48.64879" lon="-2.46552">
        <ele>39.32</ele>
        <time>2018-06-10T15:02:33Z</time>
      </trkpt>
      <trkpt lat="48.64879" lon="-2.46548">
        <ele>39.17</ele>
        <time>2018-06-10T15:02:36Z</time>
      </trkpt>
      <trkpt lat="48.64877" lon="-2.46524">
        <ele>38.53</ele>
        <time>2018-06-10T15:02:51Z</time>
      </trkpt>
      <trkpt lat="48.64876" lon="-2.46516">
        <ele>38.42</ele>
        <time>2018-06-10T15:02:56Z</time>
      </trkpt>
      <trkpt lat="48.64874" lon="-2.46512">
        <ele>37.89</ele>
        <time>2018-06-10T15:02:59Z</time>
      </trkpt>
      <trkpt lat="48.64861" lon="-2.46507">
        <ele>37.76</ele>
        <time>2018-06-10T15:03:15Z</time>
      </trkpt>
      <trkpt lat="48.64849" lon="-2.46492">
        <ele>35.48</ele>
        <time>2018-06-10T15:03:31Z</time>
      </trkpt>
      <trkpt lat="48.64829" lon="-2.46477">
        <ele>34.78</ele>
        <time>2018-06-10T15:03:52Z</time>
      </trkpt>
      <trkpt lat="48.64812" lon="-2.46455">
        <ele>35.64</ele>
        <time>2018-06-10T15:04:12Z</time>
      </trkpt>
      <trkpt lat="48.6481" lon="-2.46452">
        <ele>35.29</ele>
        <time>2018-06-10T15:04:14Z</time>
      </trkpt>
      <trkpt lat="48.64798" lon="-2.46437">
        <ele>35.31</ele>
        <time>2018-06-10T15:04:28Z</time>
      </trkpt>
      <trkpt lat="48.64797" lon="-2.46436">
        <ele>34.85</ele>
        <time>2018-06-10T15:04:29Z</time>
      </trkpt>
      <trkpt lat="48.64793" lon="-2.46433">
        <ele>35.48</ele>
        <time>2018-06-10T15:04:32Z</time>
      </trkpt>
      <trkpt lat="48.64787" lon="-2.46425">
        <ele>35.51</ele>
        <time>2018-06-10T15:04:39Z</time>
      </trkpt>
      <trkpt lat="48.64773" lon="-2.46415">
        <ele>36.36</ele>
        <time>2018-06-10T15:04:53Z</time>
      </trkpt>
      <trkpt lat="48.64758" lon="-2.46409">
        <ele>36.94</ele>
        <time>2018-06-10T15:05:06Z</time>
      </trkpt>
      <trkpt lat="48.64744" lon="-2.464">
        <ele>36.81</ele>
        <time>2018-06-10T15:05:19Z</time>
      </trkpt>
      <trkpt lat="48.64728" lon="-2.46391">
        <ele>36.57</ele>
        <time>2018-06-10T15:05:34Z</time>
      </trkpt>
      <trkpt lat="48.64719" lon="-2.46387">
        <ele>35.87</ele>
        <time>2018-06-10T15:05:42Z</time>
      </trkpt>
      <trkpt lat="48.647" lon="-2.46377">
        <ele>38.54</ele>
        <time>2018-06-10T15:06:04Z</time>
      </trkpt>
      <trkpt lat="48.64698" lon="-2.46375">
        <ele>38.46</ele>
        <time>2018-06-10T15:06:07Z</time>
      </trkpt>
      <trkpt lat="48.64693" lon="-2.46371">
        <ele>38.59</ele>
        <time>2018-06-10T15:06:12Z</time>
      </trkpt>
      <trkpt lat="48.64694" lon="-2.46348">
        <ele>37.87</ele>
        <time>2018-06-10T15:06:28Z</time>
      </trkpt>
      <trkpt lat="48.647" lon="-2.46339">
        <ele>36.71</ele>
        <time>2018-06-10T15:06:47Z</time>
      </trkpt>
      <trkpt lat="48.64706" lon="-2.46332">
        <ele>34.72</ele>
        <time>2018-06-10T15:07:04Z</time>
      </trkpt>
      <trkpt lat="48.64711" lon="-2.46328">
        <ele>31.63</ele>
        <time>2018-06-10T15:07:21Z</time>
      </trkpt>
      <trkpt lat="48.64716" lon="-2.46324">
        <ele>28.4</ele>
        <time>2018-06-10T15:07:44Z</time>
      </trkpt>
      <trkpt lat="48.64722" lon="-2.46317">
        <ele>25.23</ele>
        <time>2018-06-10T15:08:02Z</time>
      </trkpt>
      <trkpt lat="48.64728" lon="-2.46312">
        <ele>22.18</ele>
        <time>2018-06-10T15:08:18Z</time>
      </trkpt>
      <trkpt lat="48.64735" lon="-2.46306">
        <ele>19.5</ele>
        <time>2018-06-10T15:08:38Z</time>
      </trkpt>
      <trkpt lat="48.64739" lon="-2.46299">
        <ele>17.8</ele>
        <time>2018-06-10T15:09:00Z</time>
      </trkpt>
      <trkpt lat="48.64747" lon="-2.46293">
        <ele>14.78</ele>
        <time>2018-06-10T15:09:21Z</time>
      </trkpt>
      <trkpt lat="48.6475" lon="-2.4629">
        <ele>13.88</ele>
        <time>2018-06-10T15:09:27Z</time>
      </trkpt>
      <trkpt lat="48.6475" lon="-2.46286">
        <ele>13.75</ele>
        <time>2018-06-10T15:09:29Z</time>
      </trkpt>
      <trkpt lat="48.6475" lon="-2.46255">
        <ele>13.98</ele>
        <time>2018-06-10T15:09:48Z</time>
      </trkpt>
      <trkpt lat="48.64752" lon="-2.46229">
        <ele>12.77</ele>
        <time>2018-06-10T15:10:03Z</time>
      </trkpt>
      <trkpt lat="48.64751" lon="-2.46217">
        <ele>12.18</ele>
        <time>2018-06-10T15:10:09Z</time>
      </trkpt>
      <trkpt lat="48.64751" lon="-2.46187">
        <ele>12.12</ele>
        <time>2018-06-10T15:10:25Z</time>
      </trkpt>
      <trkpt lat="48.64749" lon="-2.46158">
        <ele>12.38</ele>
        <time>2018-06-10T15:10:40Z</time>
      </trkpt>
      <trkpt lat="48.64747" lon="-2.46138">
        <ele>11.27</ele>
        <time>2018-06-10T15:10:52Z</time>
      </trkpt>
      <trkpt lat="48.64743" lon="-2.46122">
        <ele>9.06</ele>
        <time>2018-06-10T15:11:06Z</time>
      </trkpt>
      <trkpt lat="48.64738" lon="-2.46098">
        <ele>11.71</ele>
        <time>2018-06-10T15:11:27Z</time>
      </trkpt>
      <trkpt lat="48.64746" lon="-2.46083">
        <ele>13.28</ele>
        <time>2018-06-10T15:11:42Z</time>
      </trkpt>
      <trkpt lat="48.64748" lon="-2.46076">
        <ele>13.43</ele>
        <time>2018-06-10T15:11:47Z</time>
      </trkpt>
      <trkpt lat="48.64757" lon="-2.46067">
        <ele>13.17</ele>
        <time>2018-06-10T15:12:06Z</time>
      </trkpt>
      <trkpt lat="48.6476" lon="-2.4606">
        <ele>12.18</ele>
        <time>2018-06-10T15:12:13Z</time>
      </trkpt>
      <trkpt lat="48.64763" lon="-2.46034">
        <ele>12.1</ele>
        <time>2018-06-10T15:12:28Z</time>
      </trkpt>
      <trkpt lat="48.64761" lon="-2.46012">
        <ele>15.43</ele>
        <time>2018-06-10T15:12:43Z</time>
      </trkpt>
      <trkpt lat="48.64754" lon="-2.45999">
        <ele>18.18</ele>
        <time>2018-06-10T15:12:57Z</time>
      </trkpt>
      <trkpt lat="48.64751" lon="-2.45987">
        <ele>19.87</ele>
        <time>2018-06-10T15:13:13Z</time>
      </trkpt>
      <trkpt lat="48.64747" lon="-2.45969">
        <ele>23.15</ele>
        <time>2018-06-10T15:13:34Z</time>
      </trkpt>
      <trkpt lat="48.64747" lon="-2.45955">
        <ele>26.26</ele>
        <time>2018-06-10T15:13:55Z</time>
      </trkpt>
      <trkpt lat="48.64744" lon="-2.45946">
        <ele>29.4</ele>
        <time>2018-06-10T15:14:12Z</time>
      </trkpt>
      <trkpt lat="48.64747" lon="-2.45932">
        <ele>31.4</ele>
        <time>2018-06-10T15:14:33Z</time>
      </trkpt>
      <trkpt lat="48.6476" lon="-2.45926">
        <ele>31.31</ele>
        <time>2018-06-10T15:14:52Z</time>
      </trkpt>
      <trkpt lat="48.64761" lon="-2.45927">
        <ele>32.3</ele>
        <time>2018-06-10T15:15:16Z</time>
      </trkpt>
      <trkpt lat="48.64763" lon="-2.45926">
        <ele>32.81</ele>
        <time>2018-06-10T15:15:45Z</time>
      </trkpt>
      <trkpt lat="48.64763" lon="-2.45924">
        <ele>32.02</ele>
        <time>2018-06-10T15:16:15Z</time>
      </trkpt>
      <trkpt lat="48.64767" lon="-2.45922">
        <ele>32.23</ele>
        <time>2018-06-10T15:16:19Z</time>
      </trkpt>
      <trkpt lat="48.64774" lon="-2.45921">
        <ele>32.18</ele>
        <time>2018-06-10T15:16:25Z</time>
      </trkpt>
      <trkpt lat="48.64782" lon="-2.45919">
        <ele>31.34</ele>
        <time>2018-06-10T15:16:33Z</time>
      </trkpt>
      <trkpt lat="48.6479" lon="-2.45921">
        <ele>30.68</ele>
        <time>2018-06-10T15:16:41Z</time>
      </trkpt>
      <trkpt lat="48.64797" lon="-2.45915">
        <ele>30.59</ele>
        <time>2018-06-10T15:16:49Z</time>
      </trkpt>
      <trkpt lat="48.64801" lon="-2.45896">
        <ele>32.33</ele>
        <time>2018-06-10T15:17:04Z</time>
      </trkpt>
      <trkpt lat="48.64799" lon="-2.45878">
        <ele>34.42</ele>
        <time>2018-06-10T15:17:22Z</time>
      </trkpt>
      <trkpt lat="48.64801" lon="-2.45862">
        <ele>36.07</ele>
        <time>2018-06-10T15:17:36Z</time>
      </trkpt>
      <trkpt lat="48.64802" lon="-2.4585">
        <ele>37.29</ele>
        <time>2018-06-10T15:17:46Z</time>
      </trkpt>
      <trkpt lat="48.64803" lon="-2.45831">
        <ele>39.61</ele>
        <time>2018-06-10T15:18:03Z</time>
      </trkpt>
      <trkpt lat="48.64803" lon="-2.4582">
        <ele>40.73</ele>
        <time>2018-06-10T15:18:11Z</time>
      </trkpt>
      <trkpt lat="48.64803" lon="-2.45808">
        <ele>41.66</ele>
        <time>2018-06-10T15:18:19Z</time>
      </trkpt>
      <trkpt lat="48.64806" lon="-2.45784">
        <ele>42.26</ele>
        <time>2018-06-10T15:18:34Z</time>
      </trkpt>
      <trkpt lat="48.6481" lon="-2.45756">
        <ele>42.63</ele>
        <time>2018-06-10T15:18:50Z</time>
      </trkpt>
      <trkpt lat="48.6481" lon="-2.45731">
        <ele>41.44</ele>
        <time>2018-06-10T15:19:07Z</time>
      </trkpt>
      <trkpt lat="48.64809" lon="-2.4573">
        <ele>42.04</ele>
        <time>2018-06-10T15:19:08Z</time>
      </trkpt>
      <trkpt lat="48.64807" lon="-2.45722">
        <ele>42.05</ele>
        <time>2018-06-10T15:19:13Z</time>
      </trkpt>
      <trkpt lat="48.64796" lon="-2.45696">
        <ele>41.9</ele>
        <time>2018-06-10T15:19:29Z</time>
      </trkpt>
      <trkpt lat="48.64793" lon="-2.45675">
        <ele>41.69</ele>
        <time>2018-06-10T15:19:43Z</time>
      </trkpt>
      <trkpt lat="48.6479" lon="-2.4566">
        <ele>41.51</ele>
        <time>2018-06-10T15:19:53Z</time>
      </trkpt>
      <trkpt lat="48.64783" lon="-2.4564">
        <ele>40.73</ele>
        <time>2018-06-10T15:20:08Z</time>
      </trkpt>
      <trkpt lat="48.64779" lon="-2.45615">
        <ele>38.71</ele>
        <time>2018-06-10T15:20:25Z</time>
      </trkpt>
      <trkpt lat="48.64778" lon="-2.45597">
        <ele>37.8</ele>
        <time>2018-06-10T15:20:38Z</time>
      </trkpt>
      <trkpt lat="48.64777" lon="-2.45588">
        <ele>36.91</ele>
        <time>2018-06-10T15:20:53Z</time>
      </trkpt>
      <trkpt lat="48.64775" lon="-2.45577">
        <ele>36.19</ele>
        <time>2018-06-10T15:20:59Z</time>
      </trkpt>
      <trkpt lat="48.64767" lon="-2.45554">
        <ele>36.45</ele>
        <time>2018-06-10T15:21:15Z</time>
      </trkpt>
      <trkpt lat="48.64766" lon="-2.45526">
        <ele>36.72</ele>
        <time>2018-06-10T15:21:28Z</time>
      </trkpt>
      <trkpt lat="48.64767" lon="-2.45501">
        <ele>37.65</ele>
        <time>2018-06-10T15:21:41Z</time>
      </trkpt>
      <trkpt lat="48.64767" lon="-2.45498">
        <ele>38.03</ele>
        <time>2018-06-10T15:21:43Z</time>
      </trkpt>
      <trkpt lat="48.64769" lon="-2.45479">
        <ele>37.69</ele>
        <time>2018-06-10T15:21:59Z</time>
      </trkpt>
      <trkpt lat="48.6477" lon="-2.45468">
        <ele>37.78</ele>
        <time>2018-06-10T15:22:18Z</time>
      </trkpt>
      <trkpt lat="48.64769" lon="-2.45469">
        <ele>38.25</ele>
        <time>2018-06-10T15:22:44Z</time>
      </trkpt>
      <trkpt lat="48.64769" lon="-2.45468">
        <ele>35.14</ele>
        <time>2018-06-10T15:22:57Z</time>
      </trkpt>
      <trkpt lat="48.6477" lon="-2.45467">
        <ele>40.51</ele>
        <time>2018-06-10T15:22:58Z</time>
      </trkpt>
      <trkpt lat="48.6477" lon="-2.45467">
        <ele>38.87</ele>
        <time>2018-06-10T15:22:59Z</time>
      </trkpt>
      <trkpt lat="48.64769" lon="-2.45467">
        <ele>38.06</ele>
        <time>2018-06-10T15:23:21Z</time>
      </trkpt>
      <trkpt lat="48.64763" lon="-2.45463">
        <ele>38.3</ele>
        <time>2018-06-10T15:23:46Z</time>
      </trkpt>
      <trkpt lat="48.64762" lon="-2.45464">
        <ele>38.46</ele>
        <time>2018-06-10T15:23:48Z</time>
      </trkpt>
      <trkpt lat="48.64745" lon="-2.45463">
        <ele>38.5</ele>
        <time>2018-06-10T15:24:03Z</time>
      </trkpt>
      <trkpt lat="48.6473" lon="-2.4547">
        <ele>38.63</ele>
        <time>2018-06-10T15:24:17Z</time>
      </trkpt>
      <trkpt lat="48.64716" lon="-2.45478">
        <ele>38.3</ele>
        <time>2018-06-10T15:24:32Z</time>
      </trkpt>
      <trkpt lat="48.64703" lon="-2.45496">
        <ele>36.36</ele>
        <time>2018-06-10T15:24:46Z</time>
      </trkpt>
      <trkpt lat="48.64692" lon="-2.45509">
        <ele>35.64</ele>
        <time>2018-06-10T15:25:00Z</time>
      </trkpt>
      <trkpt lat="48.64674" lon="-2.4552">
        <ele>34.79</ele>
        <time>2018-06-10T15:25:19Z</time>
      </trkpt>
      <trkpt lat="48.64661" lon="-2.45516">
        <ele>31.73</ele>
        <time>2018-06-10T15:25:37Z</time>
      </trkpt>
      <trkpt lat="48.64663" lon="-2.45491">
        <ele>29.2</ele>
        <time>2018-06-10T15:25:57Z</time>
      </trkpt>
      <trkpt lat="48.64674" lon="-2.45472">
        <ele>28.55</ele>
        <time>2018-06-10T15:26:16Z</time>
      </trkpt>
      <trkpt lat="48.64682" lon="-2.45458">
        <ele>26.93</ele>
        <time>2018-06-10T15:26:30Z</time>
      </trkpt>
      <trkpt lat="48.64693" lon="-2.4544">
        <ele>24.82</ele>
        <time>2018-06-10T15:26:48Z</time>
      </trkpt>
      <trkpt lat="48.6471" lon="-2.45421">
        <ele>22.39</ele>
        <time>2018-06-10T15:27:11Z</time>
      </trkpt>
      <trkpt lat="48.64724" lon="-2.45412">
        <ele>21.05</ele>
        <time>2018-06-10T15:27:24Z</time>
      </trkpt>
      <trkpt lat="48.64728" lon="-2.4541">
        <ele>20.86</ele>
        <time>2018-06-10T15:27:28Z</time>
      </trkpt>
      <trkpt lat="48.64743" lon="-2.45398">
        <ele>19.21</ele>
        <time>2018-06-10T15:27:44Z</time>
      </trkpt>
      <trkpt lat="48.64751" lon="-2.45382">
        <ele>17.95</ele>
        <time>2018-06-10T15:27:56Z</time>
      </trkpt>
      <trkpt lat="48.64759" lon="-2.45362">
        <ele>16.22</ele>
        <time>2018-06-10T15:28:11Z</time>
      </trkpt>
      <trkpt lat="48.64763" lon="-2.45342">
        <ele>13.98</ele>
        <time>2018-06-10T15:28:28Z</time>
      </trkpt>
      <trkpt lat="48.64766" lon="-2.45326">
        <ele>11.09</ele>
        <time>2018-06-10T15:28:45Z</time>
      </trkpt>
      <trkpt lat="48.64777" lon="-2.45316">
        <ele>8.21</ele>
        <time>2018-06-10T15:29:02Z</time>
      </trkpt>
      <trkpt lat="48.64779" lon="-2.45313">
        <ele>7.41</ele>
        <time>2018-06-10T15:29:06Z</time>
      </trkpt>
      <trkpt lat="48.64792" lon="-2.45298">
        <ele>6.97</ele>
        <time>2018-06-10T15:29:20Z</time>
      </trkpt>
      <trkpt lat="48.64807" lon="-2.45283">
        <ele>6.81</ele>
        <time>2018-06-10T15:29:34Z</time>
      </trkpt>
      <trkpt lat="48.64821" lon="-2.45267">
        <ele>6.29</ele>
        <time>2018-06-10T15:29:48Z</time>
      </trkpt>
      <trkpt lat="48.64827" lon="-2.45246">
        <ele>6.19</ele>
        <time>2018-06-10T15:30:02Z</time>
      </trkpt>
      <trkpt lat="48.64831" lon="-2.45226">
        <ele>6.12</ele>
        <time>2018-06-10T15:30:18Z</time>
      </trkpt>
      <trkpt lat="48.64832" lon="-2.45224">
        <ele>5.91</ele>
        <time>2018-06-10T15:30:20Z</time>
      </trkpt>
      <trkpt lat="48.64835" lon="-2.45216">
        <ele>6.16</ele>
        <time>2018-06-10T15:30:25Z</time>
      </trkpt>
      <trkpt lat="48.6484" lon="-2.45202">
        <ele>6.05</ele>
        <time>2018-06-10T15:30:34Z</time>
      </trkpt>
      <trkpt lat="48.64845" lon="-2.45196">
        <ele>5.39</ele>
        <time>2018-06-10T15:30:39Z</time>
      </trkpt>
      <trkpt lat="48.64855" lon="-2.45167">
        <ele>5.76</ele>
        <time>2018-06-10T15:30:56Z</time>
      </trkpt>
      <trkpt lat="48.64863" lon="-2.45142">
        <ele>5.28</ele>
        <time>2018-06-10T15:31:12Z</time>
      </trkpt>
      <trkpt lat="48.64871" lon="-2.45118">
        <ele>5.53</ele>
        <time>2018-06-10T15:31:26Z</time>
      </trkpt>
      <trkpt lat="48.64878" lon="-2.45093">
        <ele>5.62</ele>
        <time>2018-06-10T15:31:41Z</time>
      </trkpt>
      <trkpt lat="48.64886" lon="-2.45063">
        <ele>5.83</ele>
        <time>2018-06-10T15:31:58Z</time>
      </trkpt>
      <trkpt lat="48.64896" lon="-2.45042">
        <ele>5.4</ele>
        <time>2018-06-10T15:32:12Z</time>
      </trkpt>
      <trkpt lat="48.64904" lon="-2.45017">
        <ele>5.66</ele>
        <time>2018-06-10T15:32:28Z</time>
      </trkpt>
      <trkpt lat="48.64913" lon="-2.44992">
        <ele>6.12</ele>
        <time>2018-06-10T15:32:44Z</time>
      </trkpt>
      <trkpt lat="48.64919" lon="-2.44971">
        <ele>6.33</ele>
        <time>2018-06-10T15:32:58Z</time>
      </trkpt>
      <trkpt lat="48.64925" lon="-2.44948">
        <ele>6.12</ele>
        <time>2018-06-10T15:33:11Z</time>
      </trkpt>
      <trkpt lat="48.64927" lon="-2.44937">
        <ele>5.57</ele>
        <time>2018-06-10T15:33:18Z</time>
      </trkpt>
      <trkpt lat="48.64932" lon="-2.4493">
        <ele>5.65</ele>
        <time>2018-06-10T15:33:26Z</time>
      </trkpt>
      <trkpt lat="48.64934" lon="-2.4492">
        <ele>5.28</ele>
        <time>2018-06-10T15:33:31Z</time>
      </trkpt>
      <trkpt lat="48.64939" lon="-2.44884">
        <ele>5.39</ele>
        <time>2018-06-10T15:33:50Z</time>
      </trkpt>
      <trkpt lat="48.64939" lon="-2.44875">
        <ele>5.47</ele>
        <time>2018-06-10T15:33:55Z</time>
      </trkpt>
      <trkpt lat="48.64939" lon="-2.44863">
        <ele>6.21</ele>
        <time>2018-06-10T15:34:03Z</time>
      </trkpt>
      <trkpt lat="48.64946" lon="-2.44853">
        <ele>0.04</ele>
        <time>2018-06-10T15:34:14Z</time>
      </trkpt>
      <trkpt lat="48.64946" lon="-2.44853">
        <ele>11.61</ele>
        <time>2018-06-10T15:34:15Z</time>
      </trkpt>
      <trkpt lat="48.64946" lon="-2.44852">
        <ele>6.22</ele>
        <time>2018-06-10T15:34:16Z</time>
      </trkpt>
      <trkpt lat="48.64947" lon="-2.4485">
        <ele>5.38</ele>
        <time>2018-06-10T15:34:18Z</time>
      </trkpt>
      <trkpt lat="48.6495" lon="-2.4483">
        <ele>6.52</ele>
        <time>2018-06-10T15:34:35Z</time>
      </trkpt>
      <trkpt lat="48.64951" lon="-2.44822">
        <ele>6.27</ele>
        <time>2018-06-10T15:34:42Z</time>
      </trkpt>
      <trkpt lat="48.64957" lon="-2.448">
        <ele>5.79</ele>
        <time>2018-06-10T15:34:58Z</time>
      </trkpt>
      <trkpt lat="48.64959" lon="-2.44795">
        <ele>5.81</ele>
        <time>2018-06-10T15:35:02Z</time>
      </trkpt>
      <trkpt lat="48.64966" lon="-2.44772">
        <ele>5.98</ele>
        <time>2018-06-10T15:35:18Z</time>
      </trkpt>
      <trkpt lat="48.64973" lon="-2.44746">
        <ele>5.78</ele>
        <time>2018-06-10T15:35:35Z</time>
      </trkpt>
      <trkpt lat="48.64981" lon="-2.4472">
        <ele>5.93</ele>
        <time>2018-06-10T15:35:50Z</time>
      </trkpt>
      <trkpt lat="48.64985" lon="-2.44693">
        <ele>5.87</ele>
        <time>2018-06-10T15:36:05Z</time>
      </trkpt>
      <trkpt lat="48.64992" lon="-2.44668">
        <ele>5.81</ele>
        <time>2018-06-10T15:36:20Z</time>
      </trkpt>
      <trkpt lat="48.64999" lon="-2.44643">
        <ele>5.68</ele>
        <time>2018-06-10T15:36:35Z</time>
      </trkpt>
      <trkpt lat="48.6501" lon="-2.44618">
        <ele>6.31</ele>
        <time>2018-06-10T15:36:51Z</time>
      </trkpt>
      <trkpt lat="48.65019" lon="-2.44595">
        <ele>5.8</ele>
        <time>2018-06-10T15:37:06Z</time>
      </trkpt>
      <trkpt lat="48.6503" lon="-2.44569">
        <ele>5.8</ele>
        <time>2018-06-10T15:37:22Z</time>
      </trkpt>
      <trkpt lat="48.6504" lon="-2.4455">
        <ele>6.32</ele>
        <time>2018-06-10T15:37:35Z</time>
      </trkpt>
      <trkpt lat="48.65048" lon="-2.44527">
        <ele>6.31</ele>
        <time>2018-06-10T15:37:50Z</time>
      </trkpt>
      <trkpt lat="48.65055" lon="-2.44504">
        <ele>6.41</ele>
        <time>2018-06-10T15:38:04Z</time>
      </trkpt>
      <trkpt lat="48.6506" lon="-2.44477">
        <ele>6.87</ele>
        <time>2018-06-10T15:38:20Z</time>
      </trkpt>
      <trkpt lat="48.65064" lon="-2.44453">
        <ele>6.53</ele>
        <time>2018-06-10T15:38:35Z</time>
      </trkpt>
      <trkpt lat="48.65067" lon="-2.44423">
        <ele>6.43</ele>
        <time>2018-06-10T15:38:51Z</time>
      </trkpt>
      <trkpt lat="48.65068" lon="-2.44399">
        <ele>6.62</ele>
        <time>2018-06-10T15:39:05Z</time>
      </trkpt>
      <trkpt lat="48.65066" lon="-2.44385">
        <ele>6.81</ele>
        <time>2018-06-10T15:39:15Z</time>
      </trkpt>
      <trkpt lat="48.65073" lon="-2.44363">
        <ele>6.67</ele>
        <time>2018-06-10T15:39:30Z</time>
      </trkpt>
      <trkpt lat="48.65078" lon="-2.44346">
        <ele>6.71</ele>
        <time>2018-06-10T15:39:42Z</time>
      </trkpt>
      <trkpt lat="48.65083" lon="-2.44337">
        <ele>6.32</ele>
        <time>2018-06-10T15:39:48Z</time>
      </trkpt>
      <trkpt lat="48.65083" lon="-2.44324">
        <ele>6.15</ele>
        <time>2018-06-10T15:39:56Z</time>
      </trkpt>
      <trkpt lat="48.6509" lon="-2.44297">
        <ele>6.16</ele>
        <time>2018-06-10T15:40:13Z</time>
      </trkpt>
      <trkpt lat="48.651" lon="-2.44278">
        <ele>6.48</ele>
        <time>2018-06-10T15:40:28Z</time>
      </trkpt>
      <trkpt lat="48.65101" lon="-2.44277">
        <ele>6.61</ele>
        <time>2018-06-10T15:40:29Z</time>
      </trkpt>
      <trkpt lat="48.65112" lon="-2.44257">
        <ele>6.56</ele>
        <time>2018-06-10T15:40:43Z</time>
      </trkpt>
      <trkpt lat="48.65121" lon="-2.44236">
        <ele>6.19</ele>
        <time>2018-06-10T15:40:57Z</time>
      </trkpt>
      <trkpt lat="48.65127" lon="-2.4422">
        <ele>6.17</ele>
        <time>2018-06-10T15:41:07Z</time>
      </trkpt>
      <trkpt lat="48.65129" lon="-2.44216">
        <ele>6.18</ele>
        <time>2018-06-10T15:41:10Z</time>
      </trkpt>
      <trkpt lat="48.65136" lon="-2.44192">
        <ele>5.98</ele>
        <time>2018-06-10T15:41:25Z</time>
      </trkpt>
      <trkpt lat="48.65141" lon="-2.44172">
        <ele>6.17</ele>
        <time>2018-06-10T15:41:38Z</time>
      </trkpt>
      <trkpt lat="48.65146" lon="-2.44151">
        <ele>6.45</ele>
        <time>2018-06-10T15:41:52Z</time>
      </trkpt>
      <trkpt lat="48.65148" lon="-2.44147">
        <ele>6.51</ele>
        <time>2018-06-10T15:41:55Z</time>
      </trkpt>
      <trkpt lat="48.65157" lon="-2.44143">
        <ele>6.98</ele>
        <time>2018-06-10T15:42:02Z</time>
      </trkpt>
      <trkpt lat="48.65172" lon="-2.44143">
        <ele>6.34</ele>
        <time>2018-06-10T15:42:16Z</time>
      </trkpt>
      <trkpt lat="48.65178" lon="-2.4414">
        <ele>8.23</ele>
        <time>2018-06-10T15:42:24Z</time>
      </trkpt>
      <trkpt lat="48.65179" lon="-2.44132">
        <ele>7.9</ele>
        <time>2018-06-10T15:42:29Z</time>
      </trkpt>
      <trkpt lat="48.65175" lon="-2.4412">
        <ele>8.5</ele>
        <time>2018-06-10T15:42:38Z</time>
      </trkpt>
      <trkpt lat="48.65171" lon="-2.44101">
        <ele>9.22</ele>
        <time>2018-06-10T15:42:54Z</time>
      </trkpt>
      <trkpt lat="48.6517" lon="-2.44101">
        <ele>10.01</ele>
        <time>2018-06-10T15:43:20Z</time>
      </trkpt>
      <trkpt lat="48.6517" lon="-2.44101">
        <ele>8.53</ele>
        <time>2018-06-10T15:43:23Z</time>
      </trkpt>
      <trkpt lat="48.65171" lon="-2.441">
        <ele>9.52</ele>
        <time>2018-06-10T15:43:41Z</time>
      </trkpt>
      <trkpt lat="48.65171" lon="-2.44098">
        <ele>9.37</ele>
        <time>2018-06-10T15:44:02Z</time>
      </trkpt>
      <trkpt lat="48.6517" lon="-2.441">
        <ele>9.27</ele>
        <time>2018-06-10T15:44:33Z</time>
      </trkpt>
      <trkpt lat="48.65171" lon="-2.441">
        <ele>8.65</ele>
        <time>2018-06-10T15:45:04Z</time>
      </trkpt>
      <trkpt lat="48.65169" lon="-2.441">
        <ele>9.25</ele>
        <time>2018-06-10T15:45:35Z</time>
      </trkpt>
      <trkpt lat="48.65169" lon="-2.44099">
        <ele>8.68</ele>
        <time>2018-06-10T15:46:02Z</time>
      </trkpt>
      <trkpt lat="48.65168" lon="-2.4409">
        <ele>9.89</ele>
        <time>2018-06-10T15:46:20Z</time>
      </trkpt>
      <trkpt lat="48.65167" lon="-2.44082">
        <ele>9.41</ele>
        <time>2018-06-10T15:46:26Z</time>
      </trkpt>
      <trkpt lat="48.65164" lon="-2.44054">
        <ele>9.85</ele>
        <time>2018-06-10T15:46:44Z</time>
      </trkpt>
      <trkpt lat="48.65165" lon="-2.44025">
        <ele>10.36</ele>
        <time>2018-06-10T15:47:01Z</time>
      </trkpt>
      <trkpt lat="48.65166" lon="-2.43997">
        <ele>10.61</ele>
        <time>2018-06-10T15:47:18Z</time>
      </trkpt>
      <trkpt lat="48.65167" lon="-2.43981">
        <ele>11.37</ele>
        <time>2018-06-10T15:47:30Z</time>
      </trkpt>
      <trkpt lat="48.65161" lon="-2.43976">
        <ele>11.45</ele>
        <time>2018-06-10T15:47:36Z</time>
      </trkpt>
      <trkpt lat="48.65158" lon="-2.43974">
        <ele>11.5</ele>
        <time>2018-06-10T15:47:39Z</time>
      </trkpt>
      <trkpt lat="48.65145" lon="-2.43981">
        <ele>11.66</ele>
        <time>2018-06-10T15:47:52Z</time>
      </trkpt>
      <trkpt lat="48.65148" lon="-2.43978">
        <ele>11.84</ele>
        <time>2018-06-10T15:48:10Z</time>
      </trkpt>
      <trkpt lat="48.65149" lon="-2.43976">
        <ele>11.72</ele>
        <time>2018-06-10T15:48:12Z</time>
      </trkpt>
      <trkpt lat="48.65155" lon="-2.43967">
        <ele>11.81</ele>
        <time>2018-06-10T15:48:21Z</time>
      </trkpt>
      <trkpt lat="48.65162" lon="-2.43963">
        <ele>11.5</ele>
        <time>2018-06-10T15:48:34Z</time>
      </trkpt>
      <trkpt lat="48.6516" lon="-2.43947">
        <ele>12.01</ele>
        <time>2018-06-10T15:48:50Z</time>
      </trkpt>
    </trkseg>
  </trk>
</gpx>